<?xml version="1.0" encoding="UTF-8" standalone="no" ?>
<gpx xmlns="http://www.topografix.com/GPX/1/1" xmlns:xsi="http://www.w3.org/2001/XMLSchema-instance" xsi:schemaLocation="http://www.topografix.com/GPX/1/1 http://www.topografix.com/GPX/1/1/gpx.xsd" version="1.1" creator="VisuGPX - https://www.visugpx.com">
  <metadata>
    <name>83 - L - Carcès</name>
    <desc><![CDATA[83 - L - Carcès - Chapelle N-D de Carami, Château des Riaux]]></desc>
  </metadata>
  <trk>
    <name><![CDATA[Carcès - Chapelle N-D de Carami, Château des Riaux 2025-12-15-01]]></name>
    <trkseg>
      <trkpt lat="43.46797" lon="6.19129">
        <ele>129.4</ele>
        <time>2025-12-15T08:38:40Z</time>
      </trkpt>
      <trkpt lat="43.46796" lon="6.19129">
        <ele>129</ele>
        <time>2025-12-15T08:38:41Z</time>
      </trkpt>
      <trkpt lat="43.46805" lon="6.19132">
        <ele>129.2</ele>
        <time>2025-12-15T08:41:56Z</time>
      </trkpt>
      <trkpt lat="43.46814" lon="6.19135">
        <ele>129.9</ele>
        <time>2025-12-15T08:42:12Z</time>
      </trkpt>
      <trkpt lat="43.46824" lon="6.19136">
        <ele>130.8</ele>
        <time>2025-12-15T08:42:35Z</time>
      </trkpt>
      <trkpt lat="43.46834" lon="6.19137">
        <ele>131.1</ele>
        <time>2025-12-15T08:42:45Z</time>
      </trkpt>
      <trkpt lat="43.46843" lon="6.19135">
        <ele>131.6</ele>
        <time>2025-12-15T08:43:00Z</time>
      </trkpt>
      <trkpt lat="43.46853" lon="6.19133">
        <ele>132</ele>
        <time>2025-12-15T08:43:10Z</time>
      </trkpt>
      <trkpt lat="43.46862" lon="6.19129">
        <ele>132.5</ele>
        <time>2025-12-15T08:43:20Z</time>
      </trkpt>
      <trkpt lat="43.46871" lon="6.19128">
        <ele>133.2</ele>
        <time>2025-12-15T08:43:33Z</time>
      </trkpt>
      <trkpt lat="43.4688" lon="6.19124">
        <ele>133.6</ele>
        <time>2025-12-15T08:43:42Z</time>
      </trkpt>
      <trkpt lat="43.46889" lon="6.19124">
        <ele>133.9</ele>
        <time>2025-12-15T08:43:49Z</time>
      </trkpt>
      <trkpt lat="43.46898" lon="6.19117">
        <ele>134.4</ele>
        <time>2025-12-15T08:43:59Z</time>
      </trkpt>
      <trkpt lat="43.46905" lon="6.19109">
        <ele>134.6</ele>
        <time>2025-12-15T08:44:08Z</time>
      </trkpt>
      <trkpt lat="43.46912" lon="6.19099">
        <ele>135.3</ele>
        <time>2025-12-15T08:44:21Z</time>
      </trkpt>
      <trkpt lat="43.46916" lon="6.19088">
        <ele>135.6</ele>
        <time>2025-12-15T08:44:31Z</time>
      </trkpt>
      <trkpt lat="43.4692" lon="6.19077">
        <ele>136.4</ele>
        <time>2025-12-15T08:44:41Z</time>
      </trkpt>
      <trkpt lat="43.46923" lon="6.19064">
        <ele>137.1</ele>
        <time>2025-12-15T08:44:50Z</time>
      </trkpt>
      <trkpt lat="43.46926" lon="6.19052">
        <ele>137.3</ele>
        <time>2025-12-15T08:44:58Z</time>
      </trkpt>
      <trkpt lat="43.46921" lon="6.19062">
        <ele>140.9</ele>
        <time>2025-12-15T08:46:10Z</time>
      </trkpt>
      <trkpt lat="43.4691" lon="6.19066">
        <ele>141</ele>
        <time>2025-12-15T08:46:38Z</time>
      </trkpt>
      <trkpt lat="43.46901" lon="6.19067">
        <ele>142</ele>
        <time>2025-12-15T08:46:46Z</time>
      </trkpt>
      <trkpt lat="43.46891" lon="6.19065">
        <ele>142.4</ele>
        <time>2025-12-15T08:46:56Z</time>
      </trkpt>
      <trkpt lat="43.46882" lon="6.19064">
        <ele>143.2</ele>
        <time>2025-12-15T08:47:05Z</time>
      </trkpt>
      <trkpt lat="43.46872" lon="6.19061">
        <ele>143.3</ele>
        <time>2025-12-15T08:47:14Z</time>
      </trkpt>
      <trkpt lat="43.46863" lon="6.19059">
        <ele>143.3</ele>
        <time>2025-12-15T08:47:21Z</time>
      </trkpt>
      <trkpt lat="43.46853" lon="6.19059">
        <ele>143.1</ele>
        <time>2025-12-15T08:47:30Z</time>
      </trkpt>
      <trkpt lat="43.46844" lon="6.19061">
        <ele>142.6</ele>
        <time>2025-12-15T08:47:38Z</time>
      </trkpt>
      <trkpt lat="43.46835" lon="6.19064">
        <ele>141.1</ele>
        <time>2025-12-15T08:47:54Z</time>
      </trkpt>
      <trkpt lat="43.46826" lon="6.19065">
        <ele>141.3</ele>
        <time>2025-12-15T08:49:13Z</time>
      </trkpt>
      <trkpt lat="43.46817" lon="6.19059">
        <ele>141.3</ele>
        <time>2025-12-15T08:49:34Z</time>
      </trkpt>
      <trkpt lat="43.46813" lon="6.19047">
        <ele>141.4</ele>
        <time>2025-12-15T08:49:56Z</time>
      </trkpt>
      <trkpt lat="43.4681" lon="6.19036">
        <ele>141.9</ele>
        <time>2025-12-15T08:50:12Z</time>
      </trkpt>
      <trkpt lat="43.46802" lon="6.19029">
        <ele>142.2</ele>
        <time>2025-12-15T08:50:30Z</time>
      </trkpt>
      <trkpt lat="43.46797" lon="6.19017">
        <ele>143.1</ele>
        <time>2025-12-15T08:50:49Z</time>
      </trkpt>
      <trkpt lat="43.46797" lon="6.19004">
        <ele>143.1</ele>
        <time>2025-12-15T08:51:00Z</time>
      </trkpt>
      <trkpt lat="43.46794" lon="6.18991">
        <ele>143.4</ele>
        <time>2025-12-15T08:51:09Z</time>
      </trkpt>
      <trkpt lat="43.46794" lon="6.18979">
        <ele>143.5</ele>
        <time>2025-12-15T08:51:17Z</time>
      </trkpt>
      <trkpt lat="43.46795" lon="6.18966">
        <ele>143.6</ele>
        <time>2025-12-15T08:51:27Z</time>
      </trkpt>
      <trkpt lat="43.46796" lon="6.18954">
        <ele>144.4</ele>
        <time>2025-12-15T08:51:50Z</time>
      </trkpt>
      <trkpt lat="43.46795" lon="6.18941">
        <ele>145.1</ele>
        <time>2025-12-15T08:52:03Z</time>
      </trkpt>
      <trkpt lat="43.46796" lon="6.18927">
        <ele>145.8</ele>
        <time>2025-12-15T08:52:15Z</time>
      </trkpt>
      <trkpt lat="43.46797" lon="6.18914">
        <ele>145.9</ele>
        <time>2025-12-15T08:52:23Z</time>
      </trkpt>
      <trkpt lat="43.468" lon="6.18902">
        <ele>146.2</ele>
        <time>2025-12-15T08:52:36Z</time>
      </trkpt>
      <trkpt lat="43.46802" lon="6.1889">
        <ele>146.3</ele>
        <time>2025-12-15T08:52:48Z</time>
      </trkpt>
      <trkpt lat="43.46801" lon="6.18878">
        <ele>146.8</ele>
        <time>2025-12-15T08:53:01Z</time>
      </trkpt>
      <trkpt lat="43.46805" lon="6.18866">
        <ele>147.4</ele>
        <time>2025-12-15T08:53:11Z</time>
      </trkpt>
      <trkpt lat="43.46809" lon="6.18854">
        <ele>148.3</ele>
        <time>2025-12-15T08:53:21Z</time>
      </trkpt>
      <trkpt lat="43.46814" lon="6.18843">
        <ele>149.1</ele>
        <time>2025-12-15T08:53:33Z</time>
      </trkpt>
      <trkpt lat="43.46816" lon="6.1883">
        <ele>149.4</ele>
        <time>2025-12-15T08:53:42Z</time>
      </trkpt>
      <trkpt lat="43.46819" lon="6.18818">
        <ele>150.1</ele>
        <time>2025-12-15T08:54:42Z</time>
      </trkpt>
      <trkpt lat="43.46818" lon="6.18805">
        <ele>149.8</ele>
        <time>2025-12-15T08:54:51Z</time>
      </trkpt>
      <trkpt lat="43.46821" lon="6.18793">
        <ele>150</ele>
        <time>2025-12-15T08:55:00Z</time>
      </trkpt>
      <trkpt lat="43.4682" lon="6.1878">
        <ele>150.3</ele>
        <time>2025-12-15T08:55:37Z</time>
      </trkpt>
      <trkpt lat="43.46829" lon="6.18777">
        <ele>151.2</ele>
        <time>2025-12-15T08:56:06Z</time>
      </trkpt>
      <trkpt lat="43.46838" lon="6.18776">
        <ele>150.8</ele>
        <time>2025-12-15T08:57:41Z</time>
      </trkpt>
      <trkpt lat="43.46829" lon="6.18775">
        <ele>150.4</ele>
        <time>2025-12-15T08:58:32Z</time>
      </trkpt>
      <trkpt lat="43.46829" lon="6.18762">
        <ele>150.3</ele>
        <time>2025-12-15T08:58:55Z</time>
      </trkpt>
      <trkpt lat="43.46828" lon="6.18748">
        <ele>150.3</ele>
        <time>2025-12-15T08:59:06Z</time>
      </trkpt>
      <trkpt lat="43.46829" lon="6.18735">
        <ele>150.3</ele>
        <time>2025-12-15T08:59:14Z</time>
      </trkpt>
      <trkpt lat="43.4683" lon="6.18722">
        <ele>149.9</ele>
        <time>2025-12-15T08:59:25Z</time>
      </trkpt>
      <trkpt lat="43.4683" lon="6.18709">
        <ele>149.9</ele>
        <time>2025-12-15T08:59:36Z</time>
      </trkpt>
      <trkpt lat="43.46829" lon="6.18696">
        <ele>149.6</ele>
        <time>2025-12-15T08:59:59Z</time>
      </trkpt>
      <trkpt lat="43.46833" lon="6.18684">
        <ele>149</ele>
        <time>2025-12-15T09:00:07Z</time>
      </trkpt>
      <trkpt lat="43.4684" lon="6.18676">
        <ele>148.1</ele>
        <time>2025-12-15T09:00:15Z</time>
      </trkpt>
      <trkpt lat="43.46848" lon="6.18668">
        <ele>147.2</ele>
        <time>2025-12-15T09:00:24Z</time>
      </trkpt>
      <trkpt lat="43.46857" lon="6.18668">
        <ele>147.3</ele>
        <time>2025-12-15T09:00:36Z</time>
      </trkpt>
      <trkpt lat="43.46864" lon="6.18658">
        <ele>148.1</ele>
        <time>2025-12-15T09:00:49Z</time>
      </trkpt>
      <trkpt lat="43.46873" lon="6.18656">
        <ele>149.3</ele>
        <time>2025-12-15T09:01:42Z</time>
      </trkpt>
      <trkpt lat="43.46882" lon="6.1866">
        <ele>150.3</ele>
        <time>2025-12-15T09:01:52Z</time>
      </trkpt>
      <trkpt lat="43.46891" lon="6.18666">
        <ele>150.7</ele>
        <time>2025-12-15T09:02:02Z</time>
      </trkpt>
      <trkpt lat="43.469" lon="6.18661">
        <ele>151.2</ele>
        <time>2025-12-15T09:02:11Z</time>
      </trkpt>
      <trkpt lat="43.46908" lon="6.18655">
        <ele>151</ele>
        <time>2025-12-15T09:02:35Z</time>
      </trkpt>
      <trkpt lat="43.46915" lon="6.18648">
        <ele>150.8</ele>
        <time>2025-12-15T09:02:49Z</time>
      </trkpt>
      <trkpt lat="43.46922" lon="6.18639">
        <ele>150.7</ele>
        <time>2025-12-15T09:03:01Z</time>
      </trkpt>
      <trkpt lat="43.46929" lon="6.18629">
        <ele>150.2</ele>
        <time>2025-12-15T09:03:11Z</time>
      </trkpt>
      <trkpt lat="43.46936" lon="6.18619">
        <ele>149.9</ele>
        <time>2025-12-15T09:03:21Z</time>
      </trkpt>
      <trkpt lat="43.46942" lon="6.18608">
        <ele>149.9</ele>
        <time>2025-12-15T09:03:30Z</time>
      </trkpt>
      <trkpt lat="43.46944" lon="6.18595">
        <ele>149.8</ele>
        <time>2025-12-15T09:03:39Z</time>
      </trkpt>
      <trkpt lat="43.46946" lon="6.18582">
        <ele>149.1</ele>
        <time>2025-12-15T09:04:13Z</time>
      </trkpt>
      <trkpt lat="43.4695" lon="6.18571">
        <ele>148.5</ele>
        <time>2025-12-15T09:04:22Z</time>
      </trkpt>
      <trkpt lat="43.46955" lon="6.1856">
        <ele>148</ele>
        <time>2025-12-15T09:04:32Z</time>
      </trkpt>
      <trkpt lat="43.46963" lon="6.18554">
        <ele>147.3</ele>
        <time>2025-12-15T09:04:41Z</time>
      </trkpt>
      <trkpt lat="43.46973" lon="6.18552">
        <ele>146.7</ele>
        <time>2025-12-15T09:04:51Z</time>
      </trkpt>
      <trkpt lat="43.46982" lon="6.1855">
        <ele>145.8</ele>
        <time>2025-12-15T09:05:01Z</time>
      </trkpt>
      <trkpt lat="43.46991" lon="6.18553">
        <ele>145.2</ele>
        <time>2025-12-15T09:05:19Z</time>
      </trkpt>
      <trkpt lat="43.46999" lon="6.18559">
        <ele>144.6</ele>
        <time>2025-12-15T09:05:27Z</time>
      </trkpt>
      <trkpt lat="43.47009" lon="6.18564">
        <ele>143.5</ele>
        <time>2025-12-15T09:05:45Z</time>
      </trkpt>
      <trkpt lat="43.47018" lon="6.18564">
        <ele>143.4</ele>
        <time>2025-12-15T09:05:53Z</time>
      </trkpt>
      <trkpt lat="43.47027" lon="6.1856">
        <ele>143.2</ele>
        <time>2025-12-15T09:06:02Z</time>
      </trkpt>
      <trkpt lat="43.47035" lon="6.18555">
        <ele>143.5</ele>
        <time>2025-12-15T09:06:11Z</time>
      </trkpt>
      <trkpt lat="43.47043" lon="6.18549">
        <ele>143.6</ele>
        <time>2025-12-15T09:06:26Z</time>
      </trkpt>
      <trkpt lat="43.47052" lon="6.18547">
        <ele>144.4</ele>
        <time>2025-12-15T09:06:37Z</time>
      </trkpt>
      <trkpt lat="43.47061" lon="6.18544">
        <ele>145.5</ele>
        <time>2025-12-15T09:06:50Z</time>
      </trkpt>
      <trkpt lat="43.4707" lon="6.18544">
        <ele>147.1</ele>
        <time>2025-12-15T09:07:04Z</time>
      </trkpt>
      <trkpt lat="43.4708" lon="6.18545">
        <ele>148.7</ele>
        <time>2025-12-15T09:07:17Z</time>
      </trkpt>
      <trkpt lat="43.47089" lon="6.18548">
        <ele>150.4</ele>
        <time>2025-12-15T09:07:28Z</time>
      </trkpt>
      <trkpt lat="43.47099" lon="6.18547">
        <ele>152.3</ele>
        <time>2025-12-15T09:07:44Z</time>
      </trkpt>
      <trkpt lat="43.47108" lon="6.18543">
        <ele>153.4</ele>
        <time>2025-12-15T09:07:56Z</time>
      </trkpt>
      <trkpt lat="43.47118" lon="6.18541">
        <ele>154.4</ele>
        <time>2025-12-15T09:08:06Z</time>
      </trkpt>
      <trkpt lat="43.47125" lon="6.18533">
        <ele>155.4</ele>
        <time>2025-12-15T09:08:17Z</time>
      </trkpt>
      <trkpt lat="43.4713" lon="6.18522">
        <ele>156.5</ele>
        <time>2025-12-15T09:08:27Z</time>
      </trkpt>
      <trkpt lat="43.47134" lon="6.18511">
        <ele>157.6</ele>
        <time>2025-12-15T09:08:37Z</time>
      </trkpt>
      <trkpt lat="43.47138" lon="6.185">
        <ele>158.3</ele>
        <time>2025-12-15T09:08:47Z</time>
      </trkpt>
      <trkpt lat="43.47143" lon="6.18488">
        <ele>159.3</ele>
        <time>2025-12-15T09:09:08Z</time>
      </trkpt>
      <trkpt lat="43.47147" lon="6.18476">
        <ele>159.5</ele>
        <time>2025-12-15T09:09:17Z</time>
      </trkpt>
      <trkpt lat="43.47149" lon="6.18464">
        <ele>159.8</ele>
        <time>2025-12-15T09:09:36Z</time>
      </trkpt>
      <trkpt lat="43.47155" lon="6.18454">
        <ele>160.1</ele>
        <time>2025-12-15T09:09:44Z</time>
      </trkpt>
      <trkpt lat="43.47161" lon="6.18445">
        <ele>160.6</ele>
        <time>2025-12-15T09:09:54Z</time>
      </trkpt>
      <trkpt lat="43.47157" lon="6.18433">
        <ele>160.8</ele>
        <time>2025-12-15T09:10:14Z</time>
      </trkpt>
      <trkpt lat="43.47148" lon="6.18436">
        <ele>160.8</ele>
        <time>2025-12-15T09:10:41Z</time>
      </trkpt>
      <trkpt lat="43.47139" lon="6.18438">
        <ele>160.3</ele>
        <time>2025-12-15T09:11:00Z</time>
      </trkpt>
      <trkpt lat="43.47129" lon="6.18438">
        <ele>159</ele>
        <time>2025-12-15T09:11:15Z</time>
      </trkpt>
      <trkpt lat="43.47119" lon="6.18438">
        <ele>158.2</ele>
        <time>2025-12-15T09:11:24Z</time>
      </trkpt>
      <trkpt lat="43.47111" lon="6.18432">
        <ele>157.4</ele>
        <time>2025-12-15T09:11:35Z</time>
      </trkpt>
      <trkpt lat="43.47108" lon="6.1842">
        <ele>157.1</ele>
        <time>2025-12-15T09:11:48Z</time>
      </trkpt>
      <trkpt lat="43.47107" lon="6.18406">
        <ele>158</ele>
        <time>2025-12-15T09:11:58Z</time>
      </trkpt>
      <trkpt lat="43.47103" lon="6.18395">
        <ele>158.5</ele>
        <time>2025-12-15T09:12:06Z</time>
      </trkpt>
      <trkpt lat="43.471" lon="6.18383">
        <ele>158.7</ele>
        <time>2025-12-15T09:12:19Z</time>
      </trkpt>
      <trkpt lat="43.47094" lon="6.18372">
        <ele>158.8</ele>
        <time>2025-12-15T09:12:29Z</time>
      </trkpt>
      <trkpt lat="43.4709" lon="6.18361">
        <ele>159.2</ele>
        <time>2025-12-15T09:12:38Z</time>
      </trkpt>
      <trkpt lat="43.47085" lon="6.1835">
        <ele>160.2</ele>
        <time>2025-12-15T09:12:48Z</time>
      </trkpt>
      <trkpt lat="43.47081" lon="6.18337">
        <ele>160.3</ele>
        <time>2025-12-15T09:12:58Z</time>
      </trkpt>
      <trkpt lat="43.47077" lon="6.18325">
        <ele>160.8</ele>
        <time>2025-12-15T09:13:09Z</time>
      </trkpt>
      <trkpt lat="43.47073" lon="6.18314">
        <ele>161.4</ele>
        <time>2025-12-15T09:13:19Z</time>
      </trkpt>
      <trkpt lat="43.47066" lon="6.18303">
        <ele>161.4</ele>
        <time>2025-12-15T09:13:30Z</time>
      </trkpt>
      <trkpt lat="43.4706" lon="6.18294">
        <ele>161.6</ele>
        <time>2025-12-15T09:13:38Z</time>
      </trkpt>
      <trkpt lat="43.47056" lon="6.18283">
        <ele>161.5</ele>
        <time>2025-12-15T09:13:49Z</time>
      </trkpt>
      <trkpt lat="43.47055" lon="6.1827">
        <ele>161.9</ele>
        <time>2025-12-15T09:14:12Z</time>
      </trkpt>
      <trkpt lat="43.47055" lon="6.18258">
        <ele>161.9</ele>
        <time>2025-12-15T09:14:49Z</time>
      </trkpt>
      <trkpt lat="43.47056" lon="6.18245">
        <ele>162.8</ele>
        <time>2025-12-15T09:14:59Z</time>
      </trkpt>
      <trkpt lat="43.47055" lon="6.18232">
        <ele>163.6</ele>
        <time>2025-12-15T09:15:13Z</time>
      </trkpt>
      <trkpt lat="43.47054" lon="6.18219">
        <ele>163.9</ele>
        <time>2025-12-15T09:15:22Z</time>
      </trkpt>
      <trkpt lat="43.47053" lon="6.18207">
        <ele>164</ele>
        <time>2025-12-15T09:15:32Z</time>
      </trkpt>
      <trkpt lat="43.47053" lon="6.18193">
        <ele>164.4</ele>
        <time>2025-12-15T09:15:46Z</time>
      </trkpt>
      <trkpt lat="43.47053" lon="6.1818">
        <ele>164.8</ele>
        <time>2025-12-15T09:15:56Z</time>
      </trkpt>
      <trkpt lat="43.4705" lon="6.18168">
        <ele>165.1</ele>
        <time>2025-12-15T09:16:09Z</time>
      </trkpt>
      <trkpt lat="43.47051" lon="6.18155">
        <ele>165.1</ele>
        <time>2025-12-15T09:16:17Z</time>
      </trkpt>
      <trkpt lat="43.47048" lon="6.18142">
        <ele>165.4</ele>
        <time>2025-12-15T09:16:27Z</time>
      </trkpt>
      <trkpt lat="43.47041" lon="6.18134">
        <ele>165.3</ele>
        <time>2025-12-15T09:16:44Z</time>
      </trkpt>
      <trkpt lat="43.47032" lon="6.18132">
        <ele>164.4</ele>
        <time>2025-12-15T09:16:57Z</time>
      </trkpt>
      <trkpt lat="43.47023" lon="6.18131">
        <ele>163.7</ele>
        <time>2025-12-15T09:17:07Z</time>
      </trkpt>
      <trkpt lat="43.47013" lon="6.18131">
        <ele>163.5</ele>
        <time>2025-12-15T09:17:20Z</time>
      </trkpt>
      <trkpt lat="43.47003" lon="6.18127">
        <ele>162.8</ele>
        <time>2025-12-15T09:17:50Z</time>
      </trkpt>
      <trkpt lat="43.46994" lon="6.18125">
        <ele>162.2</ele>
        <time>2025-12-15T09:17:57Z</time>
      </trkpt>
      <trkpt lat="43.46984" lon="6.1812">
        <ele>162.9</ele>
        <time>2025-12-15T09:18:04Z</time>
      </trkpt>
      <trkpt lat="43.46977" lon="6.18112">
        <ele>162.8</ele>
        <time>2025-12-15T09:18:12Z</time>
      </trkpt>
      <trkpt lat="43.46968" lon="6.18109">
        <ele>163</ele>
        <time>2025-12-15T09:18:20Z</time>
      </trkpt>
      <trkpt lat="43.46958" lon="6.18107">
        <ele>163.3</ele>
        <time>2025-12-15T09:18:28Z</time>
      </trkpt>
      <trkpt lat="43.46949" lon="6.18108">
        <ele>163.3</ele>
        <time>2025-12-15T09:18:40Z</time>
      </trkpt>
      <trkpt lat="43.46942" lon="6.18117">
        <ele>164.3</ele>
        <time>2025-12-15T09:18:51Z</time>
      </trkpt>
      <trkpt lat="43.46933" lon="6.18123">
        <ele>165.3</ele>
        <time>2025-12-15T09:19:04Z</time>
      </trkpt>
      <trkpt lat="43.46925" lon="6.18128">
        <ele>166.1</ele>
        <time>2025-12-15T09:19:20Z</time>
      </trkpt>
      <trkpt lat="43.46916" lon="6.1813">
        <ele>166.6</ele>
        <time>2025-12-15T09:19:38Z</time>
      </trkpt>
      <trkpt lat="43.46906" lon="6.18132">
        <ele>167.1</ele>
        <time>2025-12-15T09:19:50Z</time>
      </trkpt>
      <trkpt lat="43.46897" lon="6.18133">
        <ele>168.2</ele>
        <time>2025-12-15T09:20:03Z</time>
      </trkpt>
      <trkpt lat="43.46888" lon="6.18135">
        <ele>168.8</ele>
        <time>2025-12-15T09:20:15Z</time>
      </trkpt>
      <trkpt lat="43.46879" lon="6.18138">
        <ele>169.4</ele>
        <time>2025-12-15T09:20:27Z</time>
      </trkpt>
      <trkpt lat="43.4687" lon="6.18134">
        <ele>169.7</ele>
        <time>2025-12-15T09:20:37Z</time>
      </trkpt>
      <trkpt lat="43.46869" lon="6.18121">
        <ele>170.9</ele>
        <time>2025-12-15T09:20:50Z</time>
      </trkpt>
      <trkpt lat="43.4687" lon="6.18109">
        <ele>172</ele>
        <time>2025-12-15T09:21:01Z</time>
      </trkpt>
      <trkpt lat="43.46872" lon="6.18096">
        <ele>173.1</ele>
        <time>2025-12-15T09:21:12Z</time>
      </trkpt>
      <trkpt lat="43.46875" lon="6.18084">
        <ele>173.8</ele>
        <time>2025-12-15T09:21:22Z</time>
      </trkpt>
      <trkpt lat="43.46878" lon="6.18071">
        <ele>174</ele>
        <time>2025-12-15T09:21:32Z</time>
      </trkpt>
      <trkpt lat="43.46878" lon="6.18057">
        <ele>173.7</ele>
        <time>2025-12-15T09:21:42Z</time>
      </trkpt>
      <trkpt lat="43.46874" lon="6.18045">
        <ele>173.7</ele>
        <time>2025-12-15T09:21:53Z</time>
      </trkpt>
      <trkpt lat="43.46869" lon="6.18034">
        <ele>173.3</ele>
        <time>2025-12-15T09:22:04Z</time>
      </trkpt>
      <trkpt lat="43.46865" lon="6.18023">
        <ele>173.3</ele>
        <time>2025-12-15T09:22:13Z</time>
      </trkpt>
      <trkpt lat="43.46861" lon="6.18011">
        <ele>173.2</ele>
        <time>2025-12-15T09:22:22Z</time>
      </trkpt>
      <trkpt lat="43.46857" lon="6.17999">
        <ele>173.3</ele>
        <time>2025-12-15T09:22:32Z</time>
      </trkpt>
      <trkpt lat="43.46854" lon="6.17987">
        <ele>173</ele>
        <time>2025-12-15T09:22:42Z</time>
      </trkpt>
      <trkpt lat="43.46852" lon="6.17974">
        <ele>172.3</ele>
        <time>2025-12-15T09:22:55Z</time>
      </trkpt>
      <trkpt lat="43.46856" lon="6.17962">
        <ele>171.3</ele>
        <time>2025-12-15T09:23:07Z</time>
      </trkpt>
      <trkpt lat="43.46859" lon="6.17951">
        <ele>170.1</ele>
        <time>2025-12-15T09:23:19Z</time>
      </trkpt>
      <trkpt lat="43.46858" lon="6.17938">
        <ele>169.5</ele>
        <time>2025-12-15T09:23:29Z</time>
      </trkpt>
      <trkpt lat="43.46852" lon="6.17927">
        <ele>169.4</ele>
        <time>2025-12-15T09:23:39Z</time>
      </trkpt>
      <trkpt lat="43.46845" lon="6.17918">
        <ele>169.3</ele>
        <time>2025-12-15T09:23:49Z</time>
      </trkpt>
      <trkpt lat="43.46837" lon="6.17911">
        <ele>169</ele>
        <time>2025-12-15T09:24:00Z</time>
      </trkpt>
      <trkpt lat="43.46828" lon="6.17906">
        <ele>168.6</ele>
        <time>2025-12-15T09:24:11Z</time>
      </trkpt>
      <trkpt lat="43.4682" lon="6.179">
        <ele>168</ele>
        <time>2025-12-15T09:24:19Z</time>
      </trkpt>
      <trkpt lat="43.46811" lon="6.17896">
        <ele>166.9</ele>
        <time>2025-12-15T09:24:30Z</time>
      </trkpt>
      <trkpt lat="43.46803" lon="6.17889">
        <ele>165.4</ele>
        <time>2025-12-15T09:24:41Z</time>
      </trkpt>
      <trkpt lat="43.46794" lon="6.17886">
        <ele>163.8</ele>
        <time>2025-12-15T09:24:51Z</time>
      </trkpt>
      <trkpt lat="43.46785" lon="6.17884">
        <ele>162.8</ele>
        <time>2025-12-15T09:25:00Z</time>
      </trkpt>
      <trkpt lat="43.46775" lon="6.17881">
        <ele>161.6</ele>
        <time>2025-12-15T09:25:11Z</time>
      </trkpt>
      <trkpt lat="43.46766" lon="6.17879">
        <ele>159.8</ele>
        <time>2025-12-15T09:25:24Z</time>
      </trkpt>
      <trkpt lat="43.46757" lon="6.17878">
        <ele>158.8</ele>
        <time>2025-12-15T09:25:33Z</time>
      </trkpt>
      <trkpt lat="43.46748" lon="6.17877">
        <ele>158.2</ele>
        <time>2025-12-15T09:25:42Z</time>
      </trkpt>
      <trkpt lat="43.46739" lon="6.17873">
        <ele>157.8</ele>
        <time>2025-12-15T09:26:07Z</time>
      </trkpt>
      <trkpt lat="43.4673" lon="6.17869">
        <ele>158</ele>
        <time>2025-12-15T09:26:16Z</time>
      </trkpt>
      <trkpt lat="43.46721" lon="6.17865">
        <ele>158.2</ele>
        <time>2025-12-15T09:26:26Z</time>
      </trkpt>
      <trkpt lat="43.46712" lon="6.17861">
        <ele>159.1</ele>
        <time>2025-12-15T09:26:35Z</time>
      </trkpt>
      <trkpt lat="43.46703" lon="6.17857">
        <ele>159.9</ele>
        <time>2025-12-15T09:26:43Z</time>
      </trkpt>
      <trkpt lat="43.46695" lon="6.17849">
        <ele>160.3</ele>
        <time>2025-12-15T09:26:53Z</time>
      </trkpt>
      <trkpt lat="43.46687" lon="6.17843">
        <ele>160.4</ele>
        <time>2025-12-15T09:27:02Z</time>
      </trkpt>
      <trkpt lat="43.46681" lon="6.17834">
        <ele>160.9</ele>
        <time>2025-12-15T09:27:12Z</time>
      </trkpt>
      <trkpt lat="43.46675" lon="6.17824">
        <ele>161.9</ele>
        <time>2025-12-15T09:27:23Z</time>
      </trkpt>
      <trkpt lat="43.46668" lon="6.17816">
        <ele>162.1</ele>
        <time>2025-12-15T09:27:33Z</time>
      </trkpt>
      <trkpt lat="43.46659" lon="6.17811">
        <ele>163.3</ele>
        <time>2025-12-15T09:27:43Z</time>
      </trkpt>
      <trkpt lat="43.4665" lon="6.17807">
        <ele>164.1</ele>
        <time>2025-12-15T09:27:54Z</time>
      </trkpt>
      <trkpt lat="43.46642" lon="6.17803">
        <ele>166.1</ele>
        <time>2025-12-15T09:28:07Z</time>
      </trkpt>
      <trkpt lat="43.46635" lon="6.17794">
        <ele>168</ele>
        <time>2025-12-15T09:28:20Z</time>
      </trkpt>
      <trkpt lat="43.46631" lon="6.17783">
        <ele>170.5</ele>
        <time>2025-12-15T09:28:33Z</time>
      </trkpt>
      <trkpt lat="43.46625" lon="6.17773">
        <ele>172.6</ele>
        <time>2025-12-15T09:28:46Z</time>
      </trkpt>
      <trkpt lat="43.46619" lon="6.17764">
        <ele>175.4</ele>
        <time>2025-12-15T09:29:06Z</time>
      </trkpt>
      <trkpt lat="43.46612" lon="6.17755">
        <ele>176.1</ele>
        <time>2025-12-15T09:29:16Z</time>
      </trkpt>
      <trkpt lat="43.46603" lon="6.17749">
        <ele>176.6</ele>
        <time>2025-12-15T09:29:25Z</time>
      </trkpt>
      <trkpt lat="43.46595" lon="6.17744">
        <ele>176.9</ele>
        <time>2025-12-15T09:29:38Z</time>
      </trkpt>
      <trkpt lat="43.46588" lon="6.17735">
        <ele>176.7</ele>
        <time>2025-12-15T09:29:49Z</time>
      </trkpt>
      <trkpt lat="43.46579" lon="6.1773">
        <ele>176.2</ele>
        <time>2025-12-15T09:30:01Z</time>
      </trkpt>
      <trkpt lat="43.46571" lon="6.17724">
        <ele>175.7</ele>
        <time>2025-12-15T09:30:14Z</time>
      </trkpt>
      <trkpt lat="43.46563" lon="6.17719">
        <ele>175</ele>
        <time>2025-12-15T09:30:23Z</time>
      </trkpt>
      <trkpt lat="43.46554" lon="6.17712">
        <ele>174.3</ele>
        <time>2025-12-15T09:30:34Z</time>
      </trkpt>
      <trkpt lat="43.46548" lon="6.17702">
        <ele>173.6</ele>
        <time>2025-12-15T09:30:44Z</time>
      </trkpt>
      <trkpt lat="43.46544" lon="6.1769">
        <ele>173</ele>
        <time>2025-12-15T09:30:54Z</time>
      </trkpt>
      <trkpt lat="43.46541" lon="6.17678">
        <ele>172.7</ele>
        <time>2025-12-15T09:31:04Z</time>
      </trkpt>
      <trkpt lat="43.46541" lon="6.17666">
        <ele>172</ele>
        <time>2025-12-15T09:32:21Z</time>
      </trkpt>
      <trkpt lat="43.46537" lon="6.17654">
        <ele>171.8</ele>
        <time>2025-12-15T09:33:33Z</time>
      </trkpt>
      <trkpt lat="43.46534" lon="6.17642">
        <ele>170.9</ele>
        <time>2025-12-15T09:33:54Z</time>
      </trkpt>
      <trkpt lat="43.46531" lon="6.17629">
        <ele>170.3</ele>
        <time>2025-12-15T09:34:10Z</time>
      </trkpt>
      <trkpt lat="43.46524" lon="6.17622">
        <ele>170.2</ele>
        <time>2025-12-15T09:34:25Z</time>
      </trkpt>
      <trkpt lat="43.46515" lon="6.17619">
        <ele>169.7</ele>
        <time>2025-12-15T09:34:39Z</time>
      </trkpt>
      <trkpt lat="43.46507" lon="6.17611">
        <ele>168.8</ele>
        <time>2025-12-15T09:34:52Z</time>
      </trkpt>
      <trkpt lat="43.46501" lon="6.17601">
        <ele>167.7</ele>
        <time>2025-12-15T09:35:05Z</time>
      </trkpt>
      <trkpt lat="43.465" lon="6.17588">
        <ele>166.9</ele>
        <time>2025-12-15T09:35:17Z</time>
      </trkpt>
      <trkpt lat="43.46496" lon="6.17576">
        <ele>166.2</ele>
        <time>2025-12-15T09:35:28Z</time>
      </trkpt>
      <trkpt lat="43.46495" lon="6.17564">
        <ele>165</ele>
        <time>2025-12-15T09:35:56Z</time>
      </trkpt>
      <trkpt lat="43.4649" lon="6.17552">
        <ele>164.5</ele>
        <time>2025-12-15T09:36:09Z</time>
      </trkpt>
      <trkpt lat="43.46487" lon="6.17539">
        <ele>164.2</ele>
        <time>2025-12-15T09:36:19Z</time>
      </trkpt>
      <trkpt lat="43.46488" lon="6.17525">
        <ele>163.7</ele>
        <time>2025-12-15T09:36:29Z</time>
      </trkpt>
      <trkpt lat="43.46489" lon="6.17512">
        <ele>163.2</ele>
        <time>2025-12-15T09:36:41Z</time>
      </trkpt>
      <trkpt lat="43.46491" lon="6.17499">
        <ele>162.4</ele>
        <time>2025-12-15T09:36:50Z</time>
      </trkpt>
      <trkpt lat="43.46492" lon="6.17485">
        <ele>161.5</ele>
        <time>2025-12-15T09:37:00Z</time>
      </trkpt>
      <trkpt lat="43.46492" lon="6.17472">
        <ele>161</ele>
        <time>2025-12-15T09:37:14Z</time>
      </trkpt>
      <trkpt lat="43.46492" lon="6.17459">
        <ele>160.8</ele>
        <time>2025-12-15T09:37:31Z</time>
      </trkpt>
      <trkpt lat="43.46495" lon="6.17447">
        <ele>160.3</ele>
        <time>2025-12-15T09:37:42Z</time>
      </trkpt>
      <trkpt lat="43.46497" lon="6.17434">
        <ele>159.3</ele>
        <time>2025-12-15T09:37:53Z</time>
      </trkpt>
      <trkpt lat="43.46494" lon="6.17422">
        <ele>158.6</ele>
        <time>2025-12-15T09:38:05Z</time>
      </trkpt>
      <trkpt lat="43.46488" lon="6.17413">
        <ele>157.6</ele>
        <time>2025-12-15T09:38:19Z</time>
      </trkpt>
      <trkpt lat="43.4648" lon="6.17405">
        <ele>157.1</ele>
        <time>2025-12-15T09:38:26Z</time>
      </trkpt>
      <trkpt lat="43.46472" lon="6.17399">
        <ele>156.6</ele>
        <time>2025-12-15T09:38:34Z</time>
      </trkpt>
      <trkpt lat="43.46464" lon="6.17391">
        <ele>156</ele>
        <time>2025-12-15T09:38:43Z</time>
      </trkpt>
      <trkpt lat="43.46456" lon="6.17383">
        <ele>155.5</ele>
        <time>2025-12-15T09:38:52Z</time>
      </trkpt>
      <trkpt lat="43.46449" lon="6.17374">
        <ele>154.8</ele>
        <time>2025-12-15T09:39:02Z</time>
      </trkpt>
      <trkpt lat="43.46442" lon="6.17366">
        <ele>153.4</ele>
        <time>2025-12-15T09:39:14Z</time>
      </trkpt>
      <trkpt lat="43.46434" lon="6.17358">
        <ele>152.3</ele>
        <time>2025-12-15T09:39:26Z</time>
      </trkpt>
      <trkpt lat="43.46428" lon="6.17349">
        <ele>152</ele>
        <time>2025-12-15T09:39:40Z</time>
      </trkpt>
      <trkpt lat="43.4642" lon="6.17341">
        <ele>151.3</ele>
        <time>2025-12-15T09:39:52Z</time>
      </trkpt>
      <trkpt lat="43.46413" lon="6.17333">
        <ele>150.7</ele>
        <time>2025-12-15T09:40:02Z</time>
      </trkpt>
      <trkpt lat="43.46406" lon="6.17324">
        <ele>150.2</ele>
        <time>2025-12-15T09:40:09Z</time>
      </trkpt>
      <trkpt lat="43.46405" lon="6.17311">
        <ele>149.6</ele>
        <time>2025-12-15T09:40:20Z</time>
      </trkpt>
      <trkpt lat="43.46404" lon="6.17298">
        <ele>148.8</ele>
        <time>2025-12-15T09:40:32Z</time>
      </trkpt>
      <trkpt lat="43.46404" lon="6.17286">
        <ele>148</ele>
        <time>2025-12-15T09:40:43Z</time>
      </trkpt>
      <trkpt lat="43.46405" lon="6.17273">
        <ele>147.3</ele>
        <time>2025-12-15T09:40:56Z</time>
      </trkpt>
      <trkpt lat="43.46406" lon="6.1726">
        <ele>146.7</ele>
        <time>2025-12-15T09:41:06Z</time>
      </trkpt>
      <trkpt lat="43.46407" lon="6.17247">
        <ele>145.5</ele>
        <time>2025-12-15T09:41:17Z</time>
      </trkpt>
      <trkpt lat="43.46403" lon="6.17235">
        <ele>144.9</ele>
        <time>2025-12-15T09:41:27Z</time>
      </trkpt>
      <trkpt lat="43.46402" lon="6.17221">
        <ele>144.5</ele>
        <time>2025-12-15T09:44:09Z</time>
      </trkpt>
      <trkpt lat="43.46399" lon="6.17209">
        <ele>143.9</ele>
        <time>2025-12-15T09:44:20Z</time>
      </trkpt>
      <trkpt lat="43.46394" lon="6.17197">
        <ele>142.6</ele>
        <time>2025-12-15T09:44:29Z</time>
      </trkpt>
      <trkpt lat="43.46387" lon="6.17186">
        <ele>141.5</ele>
        <time>2025-12-15T09:44:37Z</time>
      </trkpt>
      <trkpt lat="43.46381" lon="6.17176">
        <ele>140.4</ele>
        <time>2025-12-15T09:44:44Z</time>
      </trkpt>
      <trkpt lat="43.46375" lon="6.17166">
        <ele>139.5</ele>
        <time>2025-12-15T09:44:53Z</time>
      </trkpt>
      <trkpt lat="43.46368" lon="6.17156">
        <ele>138.6</ele>
        <time>2025-12-15T09:45:08Z</time>
      </trkpt>
      <trkpt lat="43.46362" lon="6.17145">
        <ele>138</ele>
        <time>2025-12-15T09:45:15Z</time>
      </trkpt>
      <trkpt lat="43.46356" lon="6.17134">
        <ele>136.9</ele>
        <time>2025-12-15T09:45:23Z</time>
      </trkpt>
      <trkpt lat="43.46351" lon="6.17123">
        <ele>136.5</ele>
        <time>2025-12-15T09:45:31Z</time>
      </trkpt>
      <trkpt lat="43.46346" lon="6.17111">
        <ele>136.2</ele>
        <time>2025-12-15T09:45:39Z</time>
      </trkpt>
      <trkpt lat="43.46341" lon="6.17101">
        <ele>136.1</ele>
        <time>2025-12-15T09:45:46Z</time>
      </trkpt>
      <trkpt lat="43.46335" lon="6.17091">
        <ele>135.8</ele>
        <time>2025-12-15T09:45:57Z</time>
      </trkpt>
      <trkpt lat="43.46327" lon="6.17085">
        <ele>135.1</ele>
        <time>2025-12-15T09:47:25Z</time>
      </trkpt>
      <trkpt lat="43.46318" lon="6.17091">
        <ele>135</ele>
        <time>2025-12-15T09:47:52Z</time>
      </trkpt>
      <trkpt lat="43.4631" lon="6.17099">
        <ele>135</ele>
        <time>2025-12-15T09:48:09Z</time>
      </trkpt>
      <trkpt lat="43.46303" lon="6.17108">
        <ele>135</ele>
        <time>2025-12-15T09:48:19Z</time>
      </trkpt>
      <trkpt lat="43.46296" lon="6.17116">
        <ele>135.6</ele>
        <time>2025-12-15T09:48:30Z</time>
      </trkpt>
      <trkpt lat="43.46289" lon="6.17125">
        <ele>135.7</ele>
        <time>2025-12-15T09:48:38Z</time>
      </trkpt>
      <trkpt lat="43.46282" lon="6.17134">
        <ele>136.1</ele>
        <time>2025-12-15T09:48:47Z</time>
      </trkpt>
      <trkpt lat="43.46274" lon="6.17141">
        <ele>136.7</ele>
        <time>2025-12-15T09:48:58Z</time>
      </trkpt>
      <trkpt lat="43.46264" lon="6.17148">
        <ele>136.6</ele>
        <time>2025-12-15T09:49:07Z</time>
      </trkpt>
      <trkpt lat="43.46255" lon="6.17152">
        <ele>136.6</ele>
        <time>2025-12-15T09:49:25Z</time>
      </trkpt>
      <trkpt lat="43.46245" lon="6.17153">
        <ele>136.6</ele>
        <time>2025-12-15T09:49:42Z</time>
      </trkpt>
      <trkpt lat="43.46236" lon="6.17156">
        <ele>137</ele>
        <time>2025-12-15T09:49:59Z</time>
      </trkpt>
      <trkpt lat="43.46226" lon="6.17158">
        <ele>137</ele>
        <time>2025-12-15T09:50:10Z</time>
      </trkpt>
      <trkpt lat="43.46217" lon="6.17161">
        <ele>137.1</ele>
        <time>2025-12-15T09:50:19Z</time>
      </trkpt>
      <trkpt lat="43.46208" lon="6.17164">
        <ele>137.2</ele>
        <time>2025-12-15T09:50:29Z</time>
      </trkpt>
      <trkpt lat="43.46199" lon="6.17168">
        <ele>137.9</ele>
        <time>2025-12-15T09:50:40Z</time>
      </trkpt>
      <trkpt lat="43.46193" lon="6.17177">
        <ele>139.4</ele>
        <time>2025-12-15T09:50:54Z</time>
      </trkpt>
      <trkpt lat="43.46183" lon="6.17178">
        <ele>139.6</ele>
        <time>2025-12-15T09:51:31Z</time>
      </trkpt>
      <trkpt lat="43.46174" lon="6.17175">
        <ele>140.8</ele>
        <time>2025-12-15T09:52:14Z</time>
      </trkpt>
      <trkpt lat="43.46165" lon="6.1718">
        <ele>141.3</ele>
        <time>2025-12-15T09:52:24Z</time>
      </trkpt>
      <trkpt lat="43.46156" lon="6.17182">
        <ele>141.6</ele>
        <time>2025-12-15T09:52:35Z</time>
      </trkpt>
      <trkpt lat="43.46148" lon="6.17188">
        <ele>142</ele>
        <time>2025-12-15T09:52:43Z</time>
      </trkpt>
      <trkpt lat="43.46142" lon="6.17198">
        <ele>142.5</ele>
        <time>2025-12-15T09:52:52Z</time>
      </trkpt>
      <trkpt lat="43.46135" lon="6.17208">
        <ele>142.6</ele>
        <time>2025-12-15T09:53:02Z</time>
      </trkpt>
      <trkpt lat="43.46126" lon="6.17214">
        <ele>142.6</ele>
        <time>2025-12-15T09:53:10Z</time>
      </trkpt>
      <trkpt lat="43.46118" lon="6.17219">
        <ele>142</ele>
        <time>2025-12-15T09:53:19Z</time>
      </trkpt>
      <trkpt lat="43.46108" lon="6.17222">
        <ele>141.6</ele>
        <time>2025-12-15T09:53:26Z</time>
      </trkpt>
      <trkpt lat="43.46098" lon="6.17223">
        <ele>141.2</ele>
        <time>2025-12-15T09:53:35Z</time>
      </trkpt>
      <trkpt lat="43.46089" lon="6.17223">
        <ele>141</ele>
        <time>2025-12-15T09:53:43Z</time>
      </trkpt>
      <trkpt lat="43.4608" lon="6.1722">
        <ele>141</ele>
        <time>2025-12-15T09:53:51Z</time>
      </trkpt>
      <trkpt lat="43.4607" lon="6.17224">
        <ele>141</ele>
        <time>2025-12-15T09:54:02Z</time>
      </trkpt>
      <trkpt lat="43.46061" lon="6.17226">
        <ele>140.8</ele>
        <time>2025-12-15T09:54:13Z</time>
      </trkpt>
      <trkpt lat="43.46052" lon="6.17228">
        <ele>140.9</ele>
        <time>2025-12-15T09:54:23Z</time>
      </trkpt>
      <trkpt lat="43.46042" lon="6.17229">
        <ele>141.2</ele>
        <time>2025-12-15T09:54:31Z</time>
      </trkpt>
      <trkpt lat="43.46033" lon="6.17226">
        <ele>141.4</ele>
        <time>2025-12-15T09:54:42Z</time>
      </trkpt>
      <trkpt lat="43.46031" lon="6.17239">
        <ele>141.1</ele>
        <time>2025-12-15T09:55:17Z</time>
      </trkpt>
      <trkpt lat="43.46028" lon="6.17252">
        <ele>140.6</ele>
        <time>2025-12-15T09:55:26Z</time>
      </trkpt>
      <trkpt lat="43.46025" lon="6.17263">
        <ele>141.5</ele>
        <time>2025-12-15T09:56:07Z</time>
      </trkpt>
      <trkpt lat="43.46023" lon="6.17276">
        <ele>141.8</ele>
        <time>2025-12-15T09:56:16Z</time>
      </trkpt>
      <trkpt lat="43.46021" lon="6.1729">
        <ele>142.3</ele>
        <time>2025-12-15T09:56:26Z</time>
      </trkpt>
      <trkpt lat="43.46018" lon="6.17302">
        <ele>142.4</ele>
        <time>2025-12-15T09:56:37Z</time>
      </trkpt>
      <trkpt lat="43.46016" lon="6.17315">
        <ele>143.1</ele>
        <time>2025-12-15T09:56:48Z</time>
      </trkpt>
      <trkpt lat="43.46012" lon="6.17327">
        <ele>143</ele>
        <time>2025-12-15T09:57:16Z</time>
      </trkpt>
      <trkpt lat="43.4601" lon="6.17339">
        <ele>143.2</ele>
        <time>2025-12-15T09:57:28Z</time>
      </trkpt>
      <trkpt lat="43.46005" lon="6.1735">
        <ele>143.4</ele>
        <time>2025-12-15T09:57:44Z</time>
      </trkpt>
      <trkpt lat="43.46" lon="6.17361">
        <ele>143.4</ele>
        <time>2025-12-15T09:57:56Z</time>
      </trkpt>
      <trkpt lat="43.45997" lon="6.17373">
        <ele>143.6</ele>
        <time>2025-12-15T09:58:07Z</time>
      </trkpt>
      <trkpt lat="43.45992" lon="6.17384">
        <ele>143.9</ele>
        <time>2025-12-15T09:58:16Z</time>
      </trkpt>
      <trkpt lat="43.45985" lon="6.17394">
        <ele>144.6</ele>
        <time>2025-12-15T09:58:27Z</time>
      </trkpt>
      <trkpt lat="43.45979" lon="6.17403">
        <ele>144.6</ele>
        <time>2025-12-15T09:58:42Z</time>
      </trkpt>
      <trkpt lat="43.45972" lon="6.17411">
        <ele>144.6</ele>
        <time>2025-12-15T09:58:51Z</time>
      </trkpt>
      <trkpt lat="43.45966" lon="6.17421">
        <ele>145.2</ele>
        <time>2025-12-15T09:59:00Z</time>
      </trkpt>
      <trkpt lat="43.4596" lon="6.17431">
        <ele>145.7</ele>
        <time>2025-12-15T09:59:11Z</time>
      </trkpt>
      <trkpt lat="43.45952" lon="6.17437">
        <ele>145.7</ele>
        <time>2025-12-15T09:59:21Z</time>
      </trkpt>
      <trkpt lat="43.45946" lon="6.17447">
        <ele>145.9</ele>
        <time>2025-12-15T09:59:30Z</time>
      </trkpt>
      <trkpt lat="43.4594" lon="6.17458">
        <ele>146.3</ele>
        <time>2025-12-15T09:59:39Z</time>
      </trkpt>
      <trkpt lat="43.45933" lon="6.17467">
        <ele>146.5</ele>
        <time>2025-12-15T09:59:47Z</time>
      </trkpt>
      <trkpt lat="43.45927" lon="6.17476">
        <ele>146.8</ele>
        <time>2025-12-15T09:59:56Z</time>
      </trkpt>
      <trkpt lat="43.45921" lon="6.17487">
        <ele>147.2</ele>
        <time>2025-12-15T10:00:04Z</time>
      </trkpt>
      <trkpt lat="43.45914" lon="6.17495">
        <ele>147.7</ele>
        <time>2025-12-15T10:00:13Z</time>
      </trkpt>
      <trkpt lat="43.45908" lon="6.17504">
        <ele>148.5</ele>
        <time>2025-12-15T10:00:24Z</time>
      </trkpt>
      <trkpt lat="43.459" lon="6.17512">
        <ele>149</ele>
        <time>2025-12-15T10:00:37Z</time>
      </trkpt>
      <trkpt lat="43.45891" lon="6.17515">
        <ele>151.1</ele>
        <time>2025-12-15T10:00:47Z</time>
      </trkpt>
      <trkpt lat="43.45883" lon="6.17519">
        <ele>152</ele>
        <time>2025-12-15T10:00:59Z</time>
      </trkpt>
      <trkpt lat="43.45875" lon="6.17527">
        <ele>153.2</ele>
        <time>2025-12-15T10:01:13Z</time>
      </trkpt>
      <trkpt lat="43.45869" lon="6.17537">
        <ele>154.1</ele>
        <time>2025-12-15T10:01:24Z</time>
      </trkpt>
      <trkpt lat="43.45864" lon="6.17548">
        <ele>154.6</ele>
        <time>2025-12-15T10:01:35Z</time>
      </trkpt>
      <trkpt lat="43.45857" lon="6.17557">
        <ele>156.3</ele>
        <time>2025-12-15T10:01:47Z</time>
      </trkpt>
      <trkpt lat="43.45852" lon="6.17568">
        <ele>158.1</ele>
        <time>2025-12-15T10:02:03Z</time>
      </trkpt>
      <trkpt lat="43.45843" lon="6.17566">
        <ele>159.5</ele>
        <time>2025-12-15T10:02:24Z</time>
      </trkpt>
      <trkpt lat="43.45834" lon="6.17564">
        <ele>160.3</ele>
        <time>2025-12-15T10:02:36Z</time>
      </trkpt>
      <trkpt lat="43.45825" lon="6.17559">
        <ele>161.1</ele>
        <time>2025-12-15T10:02:52Z</time>
      </trkpt>
      <trkpt lat="43.45815" lon="6.17559">
        <ele>162.3</ele>
        <time>2025-12-15T10:03:17Z</time>
      </trkpt>
      <trkpt lat="43.45806" lon="6.17555">
        <ele>163.4</ele>
        <time>2025-12-15T10:03:32Z</time>
      </trkpt>
      <trkpt lat="43.45797" lon="6.17553">
        <ele>164.1</ele>
        <time>2025-12-15T10:03:43Z</time>
      </trkpt>
      <trkpt lat="43.45788" lon="6.1755">
        <ele>165.2</ele>
        <time>2025-12-15T10:03:55Z</time>
      </trkpt>
      <trkpt lat="43.45778" lon="6.17548">
        <ele>166.1</ele>
        <time>2025-12-15T10:04:05Z</time>
      </trkpt>
      <trkpt lat="43.45769" lon="6.17546">
        <ele>167.5</ele>
        <time>2025-12-15T10:04:15Z</time>
      </trkpt>
      <trkpt lat="43.4576" lon="6.17543">
        <ele>168.2</ele>
        <time>2025-12-15T10:04:27Z</time>
      </trkpt>
      <trkpt lat="43.45751" lon="6.1754">
        <ele>168.8</ele>
        <time>2025-12-15T10:04:39Z</time>
      </trkpt>
      <trkpt lat="43.45742" lon="6.17539">
        <ele>169.6</ele>
        <time>2025-12-15T10:04:51Z</time>
      </trkpt>
      <trkpt lat="43.45732" lon="6.17542">
        <ele>170</ele>
        <time>2025-12-15T10:05:02Z</time>
      </trkpt>
      <trkpt lat="43.45724" lon="6.17548">
        <ele>171.5</ele>
        <time>2025-12-15T10:06:07Z</time>
      </trkpt>
      <trkpt lat="43.45716" lon="6.17553">
        <ele>171.6</ele>
        <time>2025-12-15T10:06:25Z</time>
      </trkpt>
      <trkpt lat="43.45706" lon="6.17556">
        <ele>172.5</ele>
        <time>2025-12-15T10:06:37Z</time>
      </trkpt>
      <trkpt lat="43.45699" lon="6.17566">
        <ele>172.7</ele>
        <time>2025-12-15T10:06:45Z</time>
      </trkpt>
      <trkpt lat="43.45693" lon="6.17574">
        <ele>173.8</ele>
        <time>2025-12-15T10:06:55Z</time>
      </trkpt>
      <trkpt lat="43.45685" lon="6.17583">
        <ele>174.3</ele>
        <time>2025-12-15T10:07:03Z</time>
      </trkpt>
      <trkpt lat="43.45676" lon="6.17589">
        <ele>174.6</ele>
        <time>2025-12-15T10:07:14Z</time>
      </trkpt>
      <trkpt lat="43.45667" lon="6.17592">
        <ele>175.1</ele>
        <time>2025-12-15T10:07:26Z</time>
      </trkpt>
      <trkpt lat="43.45658" lon="6.1759">
        <ele>175.5</ele>
        <time>2025-12-15T10:07:36Z</time>
      </trkpt>
      <trkpt lat="43.45648" lon="6.17594">
        <ele>176.2</ele>
        <time>2025-12-15T10:07:48Z</time>
      </trkpt>
      <trkpt lat="43.45638" lon="6.17595">
        <ele>176.5</ele>
        <time>2025-12-15T10:07:55Z</time>
      </trkpt>
      <trkpt lat="43.4563" lon="6.17599">
        <ele>177</ele>
        <time>2025-12-15T10:08:06Z</time>
      </trkpt>
      <trkpt lat="43.45622" lon="6.17607">
        <ele>178.1</ele>
        <time>2025-12-15T10:08:19Z</time>
      </trkpt>
      <trkpt lat="43.45615" lon="6.17614">
        <ele>179.3</ele>
        <time>2025-12-15T10:08:29Z</time>
      </trkpt>
      <trkpt lat="43.45607" lon="6.17622">
        <ele>180.2</ele>
        <time>2025-12-15T10:08:40Z</time>
      </trkpt>
      <trkpt lat="43.45601" lon="6.17631">
        <ele>181.2</ele>
        <time>2025-12-15T10:08:59Z</time>
      </trkpt>
      <trkpt lat="43.45596" lon="6.17643">
        <ele>181.2</ele>
        <time>2025-12-15T10:09:09Z</time>
      </trkpt>
      <trkpt lat="43.45591" lon="6.17654">
        <ele>181.6</ele>
        <time>2025-12-15T10:09:17Z</time>
      </trkpt>
      <trkpt lat="43.45584" lon="6.17663">
        <ele>181.6</ele>
        <time>2025-12-15T10:09:29Z</time>
      </trkpt>
      <trkpt lat="43.45574" lon="6.17666">
        <ele>182.1</ele>
        <time>2025-12-15T10:09:47Z</time>
      </trkpt>
      <trkpt lat="43.45565" lon="6.17668">
        <ele>182.6</ele>
        <time>2025-12-15T10:09:59Z</time>
      </trkpt>
      <trkpt lat="43.45556" lon="6.17663">
        <ele>183.5</ele>
        <time>2025-12-15T10:10:09Z</time>
      </trkpt>
      <trkpt lat="43.45546" lon="6.17663">
        <ele>183</ele>
        <time>2025-12-15T10:10:19Z</time>
      </trkpt>
      <trkpt lat="43.45536" lon="6.17663">
        <ele>183.7</ele>
        <time>2025-12-15T10:10:32Z</time>
      </trkpt>
      <trkpt lat="43.45527" lon="6.17661">
        <ele>184.4</ele>
        <time>2025-12-15T10:10:44Z</time>
      </trkpt>
      <trkpt lat="43.45518" lon="6.17659">
        <ele>185</ele>
        <time>2025-12-15T10:10:54Z</time>
      </trkpt>
      <trkpt lat="43.45509" lon="6.17655">
        <ele>185.2</ele>
        <time>2025-12-15T10:11:02Z</time>
      </trkpt>
      <trkpt lat="43.45499" lon="6.17651">
        <ele>185.6</ele>
        <time>2025-12-15T10:11:11Z</time>
      </trkpt>
      <trkpt lat="43.45491" lon="6.17646">
        <ele>186.1</ele>
        <time>2025-12-15T10:11:18Z</time>
      </trkpt>
      <trkpt lat="43.45482" lon="6.17645">
        <ele>186.9</ele>
        <time>2025-12-15T10:11:28Z</time>
      </trkpt>
      <trkpt lat="43.45472" lon="6.17643">
        <ele>188.3</ele>
        <time>2025-12-15T10:11:40Z</time>
      </trkpt>
      <trkpt lat="43.45463" lon="6.1764">
        <ele>189.3</ele>
        <time>2025-12-15T10:11:51Z</time>
      </trkpt>
      <trkpt lat="43.45457" lon="6.17631">
        <ele>190.5</ele>
        <time>2025-12-15T10:12:03Z</time>
      </trkpt>
      <trkpt lat="43.45449" lon="6.17623">
        <ele>191.8</ele>
        <time>2025-12-15T10:12:24Z</time>
      </trkpt>
      <trkpt lat="43.45441" lon="6.17616">
        <ele>192.8</ele>
        <time>2025-12-15T10:12:36Z</time>
      </trkpt>
      <trkpt lat="43.45432" lon="6.17612">
        <ele>195.1</ele>
        <time>2025-12-15T10:12:53Z</time>
      </trkpt>
      <trkpt lat="43.45423" lon="6.17609">
        <ele>196.3</ele>
        <time>2025-12-15T10:13:04Z</time>
      </trkpt>
      <trkpt lat="43.45417" lon="6.17599">
        <ele>197.1</ele>
        <time>2025-12-15T10:13:11Z</time>
      </trkpt>
      <trkpt lat="43.45409" lon="6.17593">
        <ele>197.8</ele>
        <time>2025-12-15T10:13:21Z</time>
      </trkpt>
      <trkpt lat="43.454" lon="6.1759">
        <ele>198.4</ele>
        <time>2025-12-15T10:13:32Z</time>
      </trkpt>
      <trkpt lat="43.45391" lon="6.17589">
        <ele>198.8</ele>
        <time>2025-12-15T10:13:40Z</time>
      </trkpt>
      <trkpt lat="43.45382" lon="6.17583">
        <ele>199.3</ele>
        <time>2025-12-15T10:13:50Z</time>
      </trkpt>
      <trkpt lat="43.45373" lon="6.17579">
        <ele>199.9</ele>
        <time>2025-12-15T10:13:59Z</time>
      </trkpt>
      <trkpt lat="43.45364" lon="6.17577">
        <ele>200.9</ele>
        <time>2025-12-15T10:14:11Z</time>
      </trkpt>
      <trkpt lat="43.45355" lon="6.17575">
        <ele>202</ele>
        <time>2025-12-15T10:14:22Z</time>
      </trkpt>
      <trkpt lat="43.45345" lon="6.17574">
        <ele>203.2</ele>
        <time>2025-12-15T10:14:33Z</time>
      </trkpt>
      <trkpt lat="43.45336" lon="6.17575">
        <ele>204</ele>
        <time>2025-12-15T10:14:41Z</time>
      </trkpt>
      <trkpt lat="43.45326" lon="6.17576">
        <ele>204.4</ele>
        <time>2025-12-15T10:14:51Z</time>
      </trkpt>
      <trkpt lat="43.45318" lon="6.17578">
        <ele>204.7</ele>
        <time>2025-12-15T10:15:02Z</time>
      </trkpt>
      <trkpt lat="43.45308" lon="6.17583">
        <ele>205.2</ele>
        <time>2025-12-15T10:15:12Z</time>
      </trkpt>
      <trkpt lat="43.453" lon="6.17589">
        <ele>205.6</ele>
        <time>2025-12-15T10:15:22Z</time>
      </trkpt>
      <trkpt lat="43.45291" lon="6.17594">
        <ele>205.8</ele>
        <time>2025-12-15T10:15:32Z</time>
      </trkpt>
      <trkpt lat="43.45282" lon="6.176">
        <ele>206</ele>
        <time>2025-12-15T10:15:43Z</time>
      </trkpt>
      <trkpt lat="43.45277" lon="6.17612">
        <ele>206.6</ele>
        <time>2025-12-15T10:15:56Z</time>
      </trkpt>
      <trkpt lat="43.4527" lon="6.1762">
        <ele>208.7</ele>
        <time>2025-12-15T10:16:08Z</time>
      </trkpt>
      <trkpt lat="43.45261" lon="6.17624">
        <ele>209</ele>
        <time>2025-12-15T10:16:26Z</time>
      </trkpt>
      <trkpt lat="43.45252" lon="6.17629">
        <ele>209.9</ele>
        <time>2025-12-15T10:16:35Z</time>
      </trkpt>
      <trkpt lat="43.45243" lon="6.17631">
        <ele>210.9</ele>
        <time>2025-12-15T10:16:49Z</time>
      </trkpt>
      <trkpt lat="43.45235" lon="6.1764">
        <ele>211.2</ele>
        <time>2025-12-15T10:17:03Z</time>
      </trkpt>
      <trkpt lat="43.45227" lon="6.17646">
        <ele>211.1</ele>
        <time>2025-12-15T10:17:16Z</time>
      </trkpt>
      <trkpt lat="43.45221" lon="6.17654">
        <ele>211.2</ele>
        <time>2025-12-15T10:17:26Z</time>
      </trkpt>
      <trkpt lat="43.45214" lon="6.17663">
        <ele>211.1</ele>
        <time>2025-12-15T10:17:35Z</time>
      </trkpt>
      <trkpt lat="43.45206" lon="6.17671">
        <ele>211.1</ele>
        <time>2025-12-15T10:17:45Z</time>
      </trkpt>
      <trkpt lat="43.45199" lon="6.17679">
        <ele>210.9</ele>
        <time>2025-12-15T10:17:55Z</time>
      </trkpt>
      <trkpt lat="43.45191" lon="6.17686">
        <ele>210.2</ele>
        <time>2025-12-15T10:18:06Z</time>
      </trkpt>
      <trkpt lat="43.45184" lon="6.17695">
        <ele>209.6</ele>
        <time>2025-12-15T10:18:20Z</time>
      </trkpt>
      <trkpt lat="43.45175" lon="6.17691">
        <ele>209.9</ele>
        <time>2025-12-15T10:18:44Z</time>
      </trkpt>
      <trkpt lat="43.45176" lon="6.17703">
        <ele>211</ele>
        <time>2025-12-15T10:20:57Z</time>
      </trkpt>
      <trkpt lat="43.45176" lon="6.17716">
        <ele>211</ele>
        <time>2025-12-15T10:21:38Z</time>
      </trkpt>
      <trkpt lat="43.45171" lon="6.17728">
        <ele>212.5</ele>
        <time>2025-12-15T10:23:10Z</time>
      </trkpt>
      <trkpt lat="43.45166" lon="6.17738">
        <ele>212.6</ele>
        <time>2025-12-15T10:23:24Z</time>
      </trkpt>
      <trkpt lat="43.4516" lon="6.17748">
        <ele>213.8</ele>
        <time>2025-12-15T10:24:25Z</time>
      </trkpt>
      <trkpt lat="43.45155" lon="6.1776">
        <ele>213.9</ele>
        <time>2025-12-15T10:24:35Z</time>
      </trkpt>
      <trkpt lat="43.45149" lon="6.1777">
        <ele>214.3</ele>
        <time>2025-12-15T10:24:44Z</time>
      </trkpt>
      <trkpt lat="43.45143" lon="6.1778">
        <ele>214.4</ele>
        <time>2025-12-15T10:24:55Z</time>
      </trkpt>
      <trkpt lat="43.45138" lon="6.17791">
        <ele>214.8</ele>
        <time>2025-12-15T10:25:11Z</time>
      </trkpt>
      <trkpt lat="43.45133" lon="6.17802">
        <ele>215.5</ele>
        <time>2025-12-15T10:25:21Z</time>
      </trkpt>
      <trkpt lat="43.45128" lon="6.17813">
        <ele>216.1</ele>
        <time>2025-12-15T10:25:32Z</time>
      </trkpt>
      <trkpt lat="43.45123" lon="6.17824">
        <ele>217</ele>
        <time>2025-12-15T10:25:44Z</time>
      </trkpt>
      <trkpt lat="43.45118" lon="6.17835">
        <ele>218.2</ele>
        <time>2025-12-15T10:25:55Z</time>
      </trkpt>
      <trkpt lat="43.45114" lon="6.17847">
        <ele>218.7</ele>
        <time>2025-12-15T10:26:05Z</time>
      </trkpt>
      <trkpt lat="43.45112" lon="6.1786">
        <ele>219.1</ele>
        <time>2025-12-15T10:26:16Z</time>
      </trkpt>
      <trkpt lat="43.45109" lon="6.17872">
        <ele>219.5</ele>
        <time>2025-12-15T10:26:26Z</time>
      </trkpt>
      <trkpt lat="43.45108" lon="6.17884">
        <ele>219.5</ele>
        <time>2025-12-15T10:26:36Z</time>
      </trkpt>
      <trkpt lat="43.45107" lon="6.17897">
        <ele>219.7</ele>
        <time>2025-12-15T10:26:46Z</time>
      </trkpt>
      <trkpt lat="43.45106" lon="6.17911">
        <ele>220.3</ele>
        <time>2025-12-15T10:26:56Z</time>
      </trkpt>
      <trkpt lat="43.45107" lon="6.17923">
        <ele>220.4</ele>
        <time>2025-12-15T10:27:05Z</time>
      </trkpt>
      <trkpt lat="43.45108" lon="6.17937">
        <ele>221.3</ele>
        <time>2025-12-15T10:27:15Z</time>
      </trkpt>
      <trkpt lat="43.45107" lon="6.1795">
        <ele>222.2</ele>
        <time>2025-12-15T10:27:25Z</time>
      </trkpt>
      <trkpt lat="43.45106" lon="6.17962">
        <ele>222.6</ele>
        <time>2025-12-15T10:27:35Z</time>
      </trkpt>
      <trkpt lat="43.45111" lon="6.17973">
        <ele>223.3</ele>
        <time>2025-12-15T10:27:44Z</time>
      </trkpt>
      <trkpt lat="43.45114" lon="6.17985">
        <ele>223.8</ele>
        <time>2025-12-15T10:27:54Z</time>
      </trkpt>
      <trkpt lat="43.45113" lon="6.17997">
        <ele>224.4</ele>
        <time>2025-12-15T10:28:04Z</time>
      </trkpt>
      <trkpt lat="43.45112" lon="6.1801">
        <ele>225.2</ele>
        <time>2025-12-15T10:28:14Z</time>
      </trkpt>
      <trkpt lat="43.45111" lon="6.18023">
        <ele>225.6</ele>
        <time>2025-12-15T10:28:25Z</time>
      </trkpt>
      <trkpt lat="43.45114" lon="6.18035">
        <ele>228.1</ele>
        <time>2025-12-15T10:28:56Z</time>
      </trkpt>
      <trkpt lat="43.45111" lon="6.18048">
        <ele>228.3</ele>
        <time>2025-12-15T10:29:09Z</time>
      </trkpt>
      <trkpt lat="43.45108" lon="6.1806">
        <ele>229</ele>
        <time>2025-12-15T10:29:20Z</time>
      </trkpt>
      <trkpt lat="43.45105" lon="6.18072">
        <ele>229.4</ele>
        <time>2025-12-15T10:29:32Z</time>
      </trkpt>
      <trkpt lat="43.451" lon="6.18085">
        <ele>230.1</ele>
        <time>2025-12-15T10:29:48Z</time>
      </trkpt>
      <trkpt lat="43.45097" lon="6.18096">
        <ele>230.5</ele>
        <time>2025-12-15T10:29:57Z</time>
      </trkpt>
      <trkpt lat="43.45095" lon="6.18109">
        <ele>230.6</ele>
        <time>2025-12-15T10:30:07Z</time>
      </trkpt>
      <trkpt lat="43.45093" lon="6.18122">
        <ele>231.5</ele>
        <time>2025-12-15T10:30:18Z</time>
      </trkpt>
      <trkpt lat="43.45088" lon="6.18132">
        <ele>231.7</ele>
        <time>2025-12-15T10:30:28Z</time>
      </trkpt>
      <trkpt lat="43.45083" lon="6.18142">
        <ele>232.1</ele>
        <time>2025-12-15T10:30:47Z</time>
      </trkpt>
      <trkpt lat="43.45079" lon="6.18154">
        <ele>232</ele>
        <time>2025-12-15T10:30:56Z</time>
      </trkpt>
      <trkpt lat="43.45076" lon="6.18166">
        <ele>232.2</ele>
        <time>2025-12-15T10:31:06Z</time>
      </trkpt>
      <trkpt lat="43.45072" lon="6.18177">
        <ele>232.3</ele>
        <time>2025-12-15T10:31:16Z</time>
      </trkpt>
      <trkpt lat="43.45069" lon="6.1819">
        <ele>232.9</ele>
        <time>2025-12-15T10:31:28Z</time>
      </trkpt>
      <trkpt lat="43.45066" lon="6.18203">
        <ele>233.6</ele>
        <time>2025-12-15T10:31:40Z</time>
      </trkpt>
      <trkpt lat="43.45063" lon="6.18215">
        <ele>234</ele>
        <time>2025-12-15T10:31:51Z</time>
      </trkpt>
      <trkpt lat="43.45058" lon="6.18227">
        <ele>234.7</ele>
        <time>2025-12-15T10:32:04Z</time>
      </trkpt>
      <trkpt lat="43.45055" lon="6.18239">
        <ele>235.4</ele>
        <time>2025-12-15T10:32:17Z</time>
      </trkpt>
      <trkpt lat="43.45051" lon="6.18251">
        <ele>236.6</ele>
        <time>2025-12-15T10:32:34Z</time>
      </trkpt>
      <trkpt lat="43.45052" lon="6.18264">
        <ele>237.9</ele>
        <time>2025-12-15T10:32:50Z</time>
      </trkpt>
      <trkpt lat="43.45048" lon="6.18276">
        <ele>238.3</ele>
        <time>2025-12-15T10:33:02Z</time>
      </trkpt>
      <trkpt lat="43.45045" lon="6.18288">
        <ele>239.1</ele>
        <time>2025-12-15T10:33:16Z</time>
      </trkpt>
      <trkpt lat="43.45042" lon="6.183">
        <ele>239.7</ele>
        <time>2025-12-15T10:33:28Z</time>
      </trkpt>
      <trkpt lat="43.4504" lon="6.18313">
        <ele>240.7</ele>
        <time>2025-12-15T10:33:44Z</time>
      </trkpt>
      <trkpt lat="43.45036" lon="6.18326">
        <ele>241.3</ele>
        <time>2025-12-15T10:33:55Z</time>
      </trkpt>
      <trkpt lat="43.45033" lon="6.18338">
        <ele>242.1</ele>
        <time>2025-12-15T10:34:07Z</time>
      </trkpt>
      <trkpt lat="43.4503" lon="6.1835">
        <ele>242.8</ele>
        <time>2025-12-15T10:34:21Z</time>
      </trkpt>
      <trkpt lat="43.45027" lon="6.18362">
        <ele>243</ele>
        <time>2025-12-15T10:34:32Z</time>
      </trkpt>
      <trkpt lat="43.45021" lon="6.18372">
        <ele>243.5</ele>
        <time>2025-12-15T10:34:45Z</time>
      </trkpt>
      <trkpt lat="43.45017" lon="6.18384">
        <ele>244</ele>
        <time>2025-12-15T10:34:57Z</time>
      </trkpt>
      <trkpt lat="43.45015" lon="6.18397">
        <ele>244.7</ele>
        <time>2025-12-15T10:35:09Z</time>
      </trkpt>
      <trkpt lat="43.45013" lon="6.18409">
        <ele>246.1</ele>
        <time>2025-12-15T10:35:23Z</time>
      </trkpt>
      <trkpt lat="43.45009" lon="6.18421">
        <ele>246.7</ele>
        <time>2025-12-15T10:35:35Z</time>
      </trkpt>
      <trkpt lat="43.45006" lon="6.18434">
        <ele>247.1</ele>
        <time>2025-12-15T10:35:46Z</time>
      </trkpt>
      <trkpt lat="43.45004" lon="6.18446">
        <ele>247.6</ele>
        <time>2025-12-15T10:35:58Z</time>
      </trkpt>
      <trkpt lat="43.45001" lon="6.18459">
        <ele>248.3</ele>
        <time>2025-12-15T10:36:09Z</time>
      </trkpt>
      <trkpt lat="43.45001" lon="6.18472">
        <ele>249.8</ele>
        <time>2025-12-15T10:36:22Z</time>
      </trkpt>
      <trkpt lat="43.45" lon="6.18485">
        <ele>251.1</ele>
        <time>2025-12-15T10:36:34Z</time>
      </trkpt>
      <trkpt lat="43.44997" lon="6.18497">
        <ele>252</ele>
        <time>2025-12-15T10:36:46Z</time>
      </trkpt>
      <trkpt lat="43.44996" lon="6.1851">
        <ele>253</ele>
        <time>2025-12-15T10:36:59Z</time>
      </trkpt>
      <trkpt lat="43.44995" lon="6.18523">
        <ele>253.7</ele>
        <time>2025-12-15T10:37:16Z</time>
      </trkpt>
      <trkpt lat="43.44995" lon="6.18536">
        <ele>254.4</ele>
        <time>2025-12-15T10:37:27Z</time>
      </trkpt>
      <trkpt lat="43.44996" lon="6.18549">
        <ele>254.7</ele>
        <time>2025-12-15T10:37:38Z</time>
      </trkpt>
      <trkpt lat="43.44992" lon="6.18561">
        <ele>253.9</ele>
        <time>2025-12-15T10:37:52Z</time>
      </trkpt>
      <trkpt lat="43.4499" lon="6.18574">
        <ele>253.1</ele>
        <time>2025-12-15T10:38:04Z</time>
      </trkpt>
      <trkpt lat="43.44989" lon="6.18586">
        <ele>252.9</ele>
        <time>2025-12-15T10:38:24Z</time>
      </trkpt>
      <trkpt lat="43.4499" lon="6.186">
        <ele>253</ele>
        <time>2025-12-15T10:38:35Z</time>
      </trkpt>
      <trkpt lat="43.44993" lon="6.18613">
        <ele>253.2</ele>
        <time>2025-12-15T10:38:45Z</time>
      </trkpt>
      <trkpt lat="43.44995" lon="6.18625">
        <ele>252.6</ele>
        <time>2025-12-15T10:39:00Z</time>
      </trkpt>
      <trkpt lat="43.44993" lon="6.18637">
        <ele>251.2</ele>
        <time>2025-12-15T10:39:18Z</time>
      </trkpt>
      <trkpt lat="43.44991" lon="6.18649">
        <ele>248.7</ele>
        <time>2025-12-15T10:39:31Z</time>
      </trkpt>
      <trkpt lat="43.44989" lon="6.18662">
        <ele>246.9</ele>
        <time>2025-12-15T10:39:46Z</time>
      </trkpt>
      <trkpt lat="43.44985" lon="6.18673">
        <ele>246.6</ele>
        <time>2025-12-15T10:39:59Z</time>
      </trkpt>
      <trkpt lat="43.44982" lon="6.18685">
        <ele>245.8</ele>
        <time>2025-12-15T10:41:19Z</time>
      </trkpt>
      <trkpt lat="43.44976" lon="6.18694">
        <ele>244.2</ele>
        <time>2025-12-15T10:41:39Z</time>
      </trkpt>
      <trkpt lat="43.44967" lon="6.187">
        <ele>242.5</ele>
        <time>2025-12-15T10:41:55Z</time>
      </trkpt>
      <trkpt lat="43.44961" lon="6.1871">
        <ele>241.7</ele>
        <time>2025-12-15T10:42:27Z</time>
      </trkpt>
      <trkpt lat="43.44953" lon="6.18716">
        <ele>241.3</ele>
        <time>2025-12-15T10:42:53Z</time>
      </trkpt>
      <trkpt lat="43.44947" lon="6.18726">
        <ele>240.4</ele>
        <time>2025-12-15T10:43:22Z</time>
      </trkpt>
      <trkpt lat="43.44943" lon="6.18737">
        <ele>239.1</ele>
        <time>2025-12-15T10:43:43Z</time>
      </trkpt>
      <trkpt lat="43.44938" lon="6.18749">
        <ele>237.6</ele>
        <time>2025-12-15T10:43:55Z</time>
      </trkpt>
      <trkpt lat="43.44934" lon="6.1876">
        <ele>235.7</ele>
        <time>2025-12-15T10:44:10Z</time>
      </trkpt>
      <trkpt lat="43.44932" lon="6.18772">
        <ele>233.7</ele>
        <time>2025-12-15T10:44:25Z</time>
      </trkpt>
      <trkpt lat="43.4493" lon="6.18785">
        <ele>231.8</ele>
        <time>2025-12-15T10:44:51Z</time>
      </trkpt>
      <trkpt lat="43.44928" lon="6.18798">
        <ele>230.4</ele>
        <time>2025-12-15T10:45:07Z</time>
      </trkpt>
      <trkpt lat="43.44925" lon="6.1881">
        <ele>228.7</ele>
        <time>2025-12-15T10:45:28Z</time>
      </trkpt>
      <trkpt lat="43.44922" lon="6.18823">
        <ele>227.6</ele>
        <time>2025-12-15T10:45:59Z</time>
      </trkpt>
      <trkpt lat="43.44916" lon="6.18832">
        <ele>226.5</ele>
        <time>2025-12-15T10:46:14Z</time>
      </trkpt>
      <trkpt lat="43.44911" lon="6.18843">
        <ele>225.5</ele>
        <time>2025-12-15T10:46:29Z</time>
      </trkpt>
      <trkpt lat="43.44905" lon="6.18852">
        <ele>224.6</ele>
        <time>2025-12-15T10:46:49Z</time>
      </trkpt>
      <trkpt lat="43.44901" lon="6.18864">
        <ele>223.8</ele>
        <time>2025-12-15T10:47:02Z</time>
      </trkpt>
      <trkpt lat="43.44896" lon="6.18876">
        <ele>223.2</ele>
        <time>2025-12-15T10:47:19Z</time>
      </trkpt>
      <trkpt lat="43.44889" lon="6.18884">
        <ele>222.5</ele>
        <time>2025-12-15T10:48:10Z</time>
      </trkpt>
      <trkpt lat="43.44884" lon="6.18894">
        <ele>222.1</ele>
        <time>2025-12-15T10:48:26Z</time>
      </trkpt>
      <trkpt lat="43.44879" lon="6.18905">
        <ele>221.2</ele>
        <time>2025-12-15T10:48:40Z</time>
      </trkpt>
      <trkpt lat="43.44876" lon="6.18917">
        <ele>220</ele>
        <time>2025-12-15T10:48:54Z</time>
      </trkpt>
      <trkpt lat="43.4487" lon="6.18927">
        <ele>219.3</ele>
        <time>2025-12-15T10:49:06Z</time>
      </trkpt>
      <trkpt lat="43.44866" lon="6.18939">
        <ele>218.4</ele>
        <time>2025-12-15T10:49:21Z</time>
      </trkpt>
      <trkpt lat="43.44861" lon="6.18951">
        <ele>217.8</ele>
        <time>2025-12-15T10:49:37Z</time>
      </trkpt>
      <trkpt lat="43.44858" lon="6.18962">
        <ele>216.9</ele>
        <time>2025-12-15T10:49:55Z</time>
      </trkpt>
      <trkpt lat="43.44854" lon="6.18974">
        <ele>216.1</ele>
        <time>2025-12-15T10:50:11Z</time>
      </trkpt>
      <trkpt lat="43.44851" lon="6.18986">
        <ele>215.4</ele>
        <time>2025-12-15T10:50:25Z</time>
      </trkpt>
      <trkpt lat="43.4485" lon="6.18998">
        <ele>214.3</ele>
        <time>2025-12-15T10:50:49Z</time>
      </trkpt>
      <trkpt lat="43.44846" lon="6.1901">
        <ele>213.2</ele>
        <time>2025-12-15T10:51:10Z</time>
      </trkpt>
      <trkpt lat="43.44847" lon="6.19023">
        <ele>211.8</ele>
        <time>2025-12-15T10:51:43Z</time>
      </trkpt>
      <trkpt lat="43.44842" lon="6.19033">
        <ele>211.4</ele>
        <time>2025-12-15T10:52:55Z</time>
      </trkpt>
      <trkpt lat="43.4484" lon="6.19046">
        <ele>210.1</ele>
        <time>2025-12-15T10:53:33Z</time>
      </trkpt>
      <trkpt lat="43.44843" lon="6.19058">
        <ele>209.7</ele>
        <time>2025-12-15T10:54:17Z</time>
      </trkpt>
      <trkpt lat="43.44843" lon="6.19071">
        <ele>208.8</ele>
        <time>2025-12-15T10:54:33Z</time>
      </trkpt>
      <trkpt lat="43.44845" lon="6.19083">
        <ele>208</ele>
        <time>2025-12-15T10:54:49Z</time>
      </trkpt>
      <trkpt lat="43.44847" lon="6.19096">
        <ele>207.3</ele>
        <time>2025-12-15T10:55:04Z</time>
      </trkpt>
      <trkpt lat="43.44851" lon="6.19107">
        <ele>206.6</ele>
        <time>2025-12-15T10:55:25Z</time>
      </trkpt>
      <trkpt lat="43.44851" lon="6.1912">
        <ele>206.1</ele>
        <time>2025-12-15T10:55:44Z</time>
      </trkpt>
      <trkpt lat="43.44851" lon="6.19132">
        <ele>205.3</ele>
        <time>2025-12-15T10:55:56Z</time>
      </trkpt>
      <trkpt lat="43.44846" lon="6.19144">
        <ele>204.2</ele>
        <time>2025-12-15T10:56:07Z</time>
      </trkpt>
      <trkpt lat="43.4484" lon="6.19154">
        <ele>204.6</ele>
        <time>2025-12-15T10:56:18Z</time>
      </trkpt>
      <trkpt lat="43.44837" lon="6.19166">
        <ele>204.1</ele>
        <time>2025-12-15T10:56:45Z</time>
      </trkpt>
      <trkpt lat="43.44833" lon="6.19177">
        <ele>203.7</ele>
        <time>2025-12-15T10:56:54Z</time>
      </trkpt>
      <trkpt lat="43.44826" lon="6.19186">
        <ele>203</ele>
        <time>2025-12-15T10:57:03Z</time>
      </trkpt>
      <trkpt lat="43.44817" lon="6.19191">
        <ele>202.2</ele>
        <time>2025-12-15T10:57:12Z</time>
      </trkpt>
      <trkpt lat="43.4481" lon="6.192">
        <ele>201.8</ele>
        <time>2025-12-15T10:57:21Z</time>
      </trkpt>
      <trkpt lat="43.44806" lon="6.19211">
        <ele>200.9</ele>
        <time>2025-12-15T10:57:31Z</time>
      </trkpt>
      <trkpt lat="43.44797" lon="6.19216">
        <ele>200.2</ele>
        <time>2025-12-15T10:57:41Z</time>
      </trkpt>
      <trkpt lat="43.44788" lon="6.19221">
        <ele>199.8</ele>
        <time>2025-12-15T10:57:52Z</time>
      </trkpt>
      <trkpt lat="43.44786" lon="6.19234">
        <ele>199.8</ele>
        <time>2025-12-15T10:58:11Z</time>
      </trkpt>
      <trkpt lat="43.44784" lon="6.19247">
        <ele>198.7</ele>
        <time>2025-12-15T10:58:36Z</time>
      </trkpt>
      <trkpt lat="43.44784" lon="6.1926">
        <ele>197.3</ele>
        <time>2025-12-15T10:58:52Z</time>
      </trkpt>
      <trkpt lat="43.44782" lon="6.19272">
        <ele>196.8</ele>
        <time>2025-12-15T10:59:07Z</time>
      </trkpt>
      <trkpt lat="43.44777" lon="6.19283">
        <ele>196.9</ele>
        <time>2025-12-15T10:59:18Z</time>
      </trkpt>
      <trkpt lat="43.44779" lon="6.19296">
        <ele>196.4</ele>
        <time>2025-12-15T11:00:30Z</time>
      </trkpt>
      <trkpt lat="43.44783" lon="6.19308">
        <ele>196.1</ele>
        <time>2025-12-15T11:00:44Z</time>
      </trkpt>
      <trkpt lat="43.44782" lon="6.1932">
        <ele>195.5</ele>
        <time>2025-12-15T11:01:56Z</time>
      </trkpt>
      <trkpt lat="43.44787" lon="6.19332">
        <ele>195.9</ele>
        <time>2025-12-15T11:02:08Z</time>
      </trkpt>
      <trkpt lat="43.44792" lon="6.19343">
        <ele>195.4</ele>
        <time>2025-12-15T11:02:18Z</time>
      </trkpt>
      <trkpt lat="43.44797" lon="6.19352">
        <ele>195.6</ele>
        <time>2025-12-15T11:02:47Z</time>
      </trkpt>
      <trkpt lat="43.44806" lon="6.19355">
        <ele>195.3</ele>
        <time>2025-12-15T11:03:03Z</time>
      </trkpt>
      <trkpt lat="43.44815" lon="6.19356">
        <ele>195.9</ele>
        <time>2025-12-15T11:03:15Z</time>
      </trkpt>
      <trkpt lat="43.44824" lon="6.19361">
        <ele>196.2</ele>
        <time>2025-12-15T11:03:27Z</time>
      </trkpt>
      <trkpt lat="43.44832" lon="6.19369">
        <ele>196.8</ele>
        <time>2025-12-15T11:03:50Z</time>
      </trkpt>
      <trkpt lat="43.44838" lon="6.19379">
        <ele>196.5</ele>
        <time>2025-12-15T11:04:00Z</time>
      </trkpt>
      <trkpt lat="43.44842" lon="6.19391">
        <ele>196.1</ele>
        <time>2025-12-15T11:04:16Z</time>
      </trkpt>
      <trkpt lat="43.44846" lon="6.19402">
        <ele>195.6</ele>
        <time>2025-12-15T11:04:29Z</time>
      </trkpt>
      <trkpt lat="43.44849" lon="6.19414">
        <ele>194.9</ele>
        <time>2025-12-15T11:04:39Z</time>
      </trkpt>
      <trkpt lat="43.44856" lon="6.19423">
        <ele>194.8</ele>
        <time>2025-12-15T11:04:53Z</time>
      </trkpt>
      <trkpt lat="43.44861" lon="6.19434">
        <ele>195</ele>
        <time>2025-12-15T11:05:29Z</time>
      </trkpt>
      <trkpt lat="43.44857" lon="6.19445">
        <ele>200.5</ele>
        <time>2025-12-15T11:22:54Z</time>
      </trkpt>
      <trkpt lat="43.44857" lon="6.19432">
        <ele>202.3</ele>
        <time>2025-12-15T11:28:06Z</time>
      </trkpt>
      <trkpt lat="43.44854" lon="6.19444">
        <ele>210.3</ele>
        <time>2025-12-15T11:54:25Z</time>
      </trkpt>
      <trkpt lat="43.44859" lon="6.19456">
        <ele>209.7</ele>
        <time>2025-12-15T11:54:37Z</time>
      </trkpt>
      <trkpt lat="43.44863" lon="6.19468">
        <ele>209.8</ele>
        <time>2025-12-15T11:54:44Z</time>
      </trkpt>
      <trkpt lat="43.44869" lon="6.19477">
        <ele>210.1</ele>
        <time>2025-12-15T11:54:51Z</time>
      </trkpt>
      <trkpt lat="43.44875" lon="6.19488">
        <ele>210.2</ele>
        <time>2025-12-15T11:54:59Z</time>
      </trkpt>
      <trkpt lat="43.44881" lon="6.19498">
        <ele>210.4</ele>
        <time>2025-12-15T11:55:08Z</time>
      </trkpt>
      <trkpt lat="43.44886" lon="6.19509">
        <ele>210.6</ele>
        <time>2025-12-15T11:55:18Z</time>
      </trkpt>
      <trkpt lat="43.44889" lon="6.19521">
        <ele>210.2</ele>
        <time>2025-12-15T11:55:34Z</time>
      </trkpt>
      <trkpt lat="43.44895" lon="6.19531">
        <ele>210.8</ele>
        <time>2025-12-15T11:55:44Z</time>
      </trkpt>
      <trkpt lat="43.44898" lon="6.19543">
        <ele>210.7</ele>
        <time>2025-12-15T11:55:57Z</time>
      </trkpt>
      <trkpt lat="43.44905" lon="6.19552">
        <ele>211.1</ele>
        <time>2025-12-15T11:56:06Z</time>
      </trkpt>
      <trkpt lat="43.44911" lon="6.19562">
        <ele>211.1</ele>
        <time>2025-12-15T11:56:15Z</time>
      </trkpt>
      <trkpt lat="43.44917" lon="6.19573">
        <ele>210.9</ele>
        <time>2025-12-15T11:56:23Z</time>
      </trkpt>
      <trkpt lat="43.44922" lon="6.19584">
        <ele>211</ele>
        <time>2025-12-15T11:56:32Z</time>
      </trkpt>
      <trkpt lat="43.44929" lon="6.19594">
        <ele>211.1</ele>
        <time>2025-12-15T11:56:45Z</time>
      </trkpt>
      <trkpt lat="43.44936" lon="6.19603">
        <ele>210.9</ele>
        <time>2025-12-15T11:56:53Z</time>
      </trkpt>
      <trkpt lat="43.44944" lon="6.19609">
        <ele>210.4</ele>
        <time>2025-12-15T11:57:01Z</time>
      </trkpt>
      <trkpt lat="43.44951" lon="6.19617">
        <ele>210.1</ele>
        <time>2025-12-15T11:57:10Z</time>
      </trkpt>
      <trkpt lat="43.44959" lon="6.19623">
        <ele>210.2</ele>
        <time>2025-12-15T11:57:19Z</time>
      </trkpt>
      <trkpt lat="43.44967" lon="6.1963">
        <ele>210.6</ele>
        <time>2025-12-15T11:57:28Z</time>
      </trkpt>
      <trkpt lat="43.44975" lon="6.19637">
        <ele>210.2</ele>
        <time>2025-12-15T11:57:38Z</time>
      </trkpt>
      <trkpt lat="43.44983" lon="6.19644">
        <ele>209.7</ele>
        <time>2025-12-15T11:57:46Z</time>
      </trkpt>
      <trkpt lat="43.44991" lon="6.19651">
        <ele>209.6</ele>
        <time>2025-12-15T11:57:55Z</time>
      </trkpt>
      <trkpt lat="43.44999" lon="6.19658">
        <ele>210</ele>
        <time>2025-12-15T11:58:10Z</time>
      </trkpt>
      <trkpt lat="43.45006" lon="6.19666">
        <ele>210.4</ele>
        <time>2025-12-15T11:58:19Z</time>
      </trkpt>
      <trkpt lat="43.45014" lon="6.19673">
        <ele>210.5</ele>
        <time>2025-12-15T11:58:43Z</time>
      </trkpt>
      <trkpt lat="43.45022" lon="6.19677">
        <ele>211.1</ele>
        <time>2025-12-15T11:59:16Z</time>
      </trkpt>
      <trkpt lat="43.45028" lon="6.19686">
        <ele>211.2</ele>
        <time>2025-12-15T11:59:52Z</time>
      </trkpt>
      <trkpt lat="43.45037" lon="6.1969">
        <ele>210.8</ele>
        <time>2025-12-15T12:00:12Z</time>
      </trkpt>
      <trkpt lat="43.45046" lon="6.19695">
        <ele>210.8</ele>
        <time>2025-12-15T12:00:22Z</time>
      </trkpt>
      <trkpt lat="43.45055" lon="6.19701">
        <ele>210.9</ele>
        <time>2025-12-15T12:00:32Z</time>
      </trkpt>
      <trkpt lat="43.45064" lon="6.19705">
        <ele>210.4</ele>
        <time>2025-12-15T12:00:41Z</time>
      </trkpt>
      <trkpt lat="43.45073" lon="6.19709">
        <ele>210</ele>
        <time>2025-12-15T12:00:51Z</time>
      </trkpt>
      <trkpt lat="43.4508" lon="6.19718">
        <ele>210.4</ele>
        <time>2025-12-15T12:01:00Z</time>
      </trkpt>
      <trkpt lat="43.45088" lon="6.19726">
        <ele>210.5</ele>
        <time>2025-12-15T12:01:08Z</time>
      </trkpt>
      <trkpt lat="43.45094" lon="6.19736">
        <ele>210.8</ele>
        <time>2025-12-15T12:01:16Z</time>
      </trkpt>
      <trkpt lat="43.45102" lon="6.19741">
        <ele>211</ele>
        <time>2025-12-15T12:01:23Z</time>
      </trkpt>
      <trkpt lat="43.45108" lon="6.19751">
        <ele>210.9</ele>
        <time>2025-12-15T12:01:32Z</time>
      </trkpt>
      <trkpt lat="43.45117" lon="6.19755">
        <ele>211</ele>
        <time>2025-12-15T12:01:45Z</time>
      </trkpt>
      <trkpt lat="43.45121" lon="6.19767">
        <ele>211.4</ele>
        <time>2025-12-15T12:01:55Z</time>
      </trkpt>
      <trkpt lat="43.45122" lon="6.1978">
        <ele>211.1</ele>
        <time>2025-12-15T12:02:05Z</time>
      </trkpt>
      <trkpt lat="43.45127" lon="6.1979">
        <ele>211.4</ele>
        <time>2025-12-15T12:02:16Z</time>
      </trkpt>
      <trkpt lat="43.45131" lon="6.19802">
        <ele>211.1</ele>
        <time>2025-12-15T12:02:27Z</time>
      </trkpt>
      <trkpt lat="43.45138" lon="6.19812">
        <ele>211.4</ele>
        <time>2025-12-15T12:02:37Z</time>
      </trkpt>
      <trkpt lat="43.45138" lon="6.19825">
        <ele>211.7</ele>
        <time>2025-12-15T12:02:48Z</time>
      </trkpt>
      <trkpt lat="43.45138" lon="6.19838">
        <ele>212.1</ele>
        <time>2025-12-15T12:02:58Z</time>
      </trkpt>
      <trkpt lat="43.4514" lon="6.19851">
        <ele>212.1</ele>
        <time>2025-12-15T12:03:07Z</time>
      </trkpt>
      <trkpt lat="43.45143" lon="6.19863">
        <ele>212.3</ele>
        <time>2025-12-15T12:03:17Z</time>
      </trkpt>
      <trkpt lat="43.45143" lon="6.19877">
        <ele>211.7</ele>
        <time>2025-12-15T12:03:26Z</time>
      </trkpt>
      <trkpt lat="43.45146" lon="6.19889">
        <ele>211.8</ele>
        <time>2025-12-15T12:03:35Z</time>
      </trkpt>
      <trkpt lat="43.45148" lon="6.19901">
        <ele>211.7</ele>
        <time>2025-12-15T12:03:43Z</time>
      </trkpt>
      <trkpt lat="43.45149" lon="6.19915">
        <ele>212.5</ele>
        <time>2025-12-15T12:03:53Z</time>
      </trkpt>
      <trkpt lat="43.45152" lon="6.19928">
        <ele>213.3</ele>
        <time>2025-12-15T12:04:02Z</time>
      </trkpt>
      <trkpt lat="43.45154" lon="6.19942">
        <ele>212.5</ele>
        <time>2025-12-15T12:04:12Z</time>
      </trkpt>
      <trkpt lat="43.4515" lon="6.19953">
        <ele>212.4</ele>
        <time>2025-12-15T12:04:24Z</time>
      </trkpt>
      <trkpt lat="43.45153" lon="6.19966">
        <ele>214.1</ele>
        <time>2025-12-15T12:04:43Z</time>
      </trkpt>
      <trkpt lat="43.45154" lon="6.19978">
        <ele>214.2</ele>
        <time>2025-12-15T12:04:53Z</time>
      </trkpt>
      <trkpt lat="43.45155" lon="6.19991">
        <ele>213.7</ele>
        <time>2025-12-15T12:05:02Z</time>
      </trkpt>
      <trkpt lat="43.45157" lon="6.20003">
        <ele>213.1</ele>
        <time>2025-12-15T12:05:14Z</time>
      </trkpt>
      <trkpt lat="43.45154" lon="6.20016">
        <ele>212.9</ele>
        <time>2025-12-15T12:05:27Z</time>
      </trkpt>
      <trkpt lat="43.45153" lon="6.20029">
        <ele>213</ele>
        <time>2025-12-15T12:05:44Z</time>
      </trkpt>
      <trkpt lat="43.45156" lon="6.2004">
        <ele>212.9</ele>
        <time>2025-12-15T12:05:54Z</time>
      </trkpt>
      <trkpt lat="43.45155" lon="6.20053">
        <ele>213</ele>
        <time>2025-12-15T12:06:04Z</time>
      </trkpt>
      <trkpt lat="43.45154" lon="6.20066">
        <ele>213.4</ele>
        <time>2025-12-15T12:06:17Z</time>
      </trkpt>
      <trkpt lat="43.45156" lon="6.20078">
        <ele>213.3</ele>
        <time>2025-12-15T12:06:28Z</time>
      </trkpt>
      <trkpt lat="43.45155" lon="6.20091">
        <ele>212.4</ele>
        <time>2025-12-15T12:06:38Z</time>
      </trkpt>
      <trkpt lat="43.45154" lon="6.20105">
        <ele>212.4</ele>
        <time>2025-12-15T12:06:46Z</time>
      </trkpt>
      <trkpt lat="43.45151" lon="6.20117">
        <ele>212.6</ele>
        <time>2025-12-15T12:06:54Z</time>
      </trkpt>
      <trkpt lat="43.45148" lon="6.2013">
        <ele>212.7</ele>
        <time>2025-12-15T12:07:05Z</time>
      </trkpt>
      <trkpt lat="43.45149" lon="6.20142">
        <ele>213.3</ele>
        <time>2025-12-15T12:07:17Z</time>
      </trkpt>
      <trkpt lat="43.45151" lon="6.20156">
        <ele>213.8</ele>
        <time>2025-12-15T12:07:29Z</time>
      </trkpt>
      <trkpt lat="43.45149" lon="6.20169">
        <ele>214</ele>
        <time>2025-12-15T12:07:43Z</time>
      </trkpt>
      <trkpt lat="43.45151" lon="6.20183">
        <ele>214.5</ele>
        <time>2025-12-15T12:07:55Z</time>
      </trkpt>
      <trkpt lat="43.45151" lon="6.20196">
        <ele>214.1</ele>
        <time>2025-12-15T12:08:05Z</time>
      </trkpt>
      <trkpt lat="43.45148" lon="6.20208">
        <ele>213.7</ele>
        <time>2025-12-15T12:08:18Z</time>
      </trkpt>
      <trkpt lat="43.45146" lon="6.20221">
        <ele>213.4</ele>
        <time>2025-12-15T12:08:30Z</time>
      </trkpt>
      <trkpt lat="43.4514" lon="6.20231">
        <ele>213.2</ele>
        <time>2025-12-15T12:08:42Z</time>
      </trkpt>
      <trkpt lat="43.45138" lon="6.20244">
        <ele>213.6</ele>
        <time>2025-12-15T12:09:00Z</time>
      </trkpt>
      <trkpt lat="43.45134" lon="6.20257">
        <ele>213.8</ele>
        <time>2025-12-15T12:09:12Z</time>
      </trkpt>
      <trkpt lat="43.45132" lon="6.20269">
        <ele>213.5</ele>
        <time>2025-12-15T12:09:22Z</time>
      </trkpt>
      <trkpt lat="43.45129" lon="6.20282">
        <ele>213.1</ele>
        <time>2025-12-15T12:09:33Z</time>
      </trkpt>
      <trkpt lat="43.45126" lon="6.20295">
        <ele>213.1</ele>
        <time>2025-12-15T12:09:47Z</time>
      </trkpt>
      <trkpt lat="43.45125" lon="6.20308">
        <ele>213.1</ele>
        <time>2025-12-15T12:09:57Z</time>
      </trkpt>
      <trkpt lat="43.45123" lon="6.20321">
        <ele>212.5</ele>
        <time>2025-12-15T12:10:06Z</time>
      </trkpt>
      <trkpt lat="43.45118" lon="6.20331">
        <ele>212.3</ele>
        <time>2025-12-15T12:10:14Z</time>
      </trkpt>
      <trkpt lat="43.45117" lon="6.20345">
        <ele>212.3</ele>
        <time>2025-12-15T12:10:27Z</time>
      </trkpt>
      <trkpt lat="43.45114" lon="6.20358">
        <ele>212.4</ele>
        <time>2025-12-15T12:10:36Z</time>
      </trkpt>
      <trkpt lat="43.45116" lon="6.20371">
        <ele>212.5</ele>
        <time>2025-12-15T12:10:45Z</time>
      </trkpt>
      <trkpt lat="43.45119" lon="6.20384">
        <ele>212.4</ele>
        <time>2025-12-15T12:10:55Z</time>
      </trkpt>
      <trkpt lat="43.45121" lon="6.20397">
        <ele>212.6</ele>
        <time>2025-12-15T12:11:06Z</time>
      </trkpt>
      <trkpt lat="43.45123" lon="6.20411">
        <ele>212.7</ele>
        <time>2025-12-15T12:11:14Z</time>
      </trkpt>
      <trkpt lat="43.45126" lon="6.20423">
        <ele>212.8</ele>
        <time>2025-12-15T12:11:22Z</time>
      </trkpt>
      <trkpt lat="43.45131" lon="6.20434">
        <ele>213.4</ele>
        <time>2025-12-15T12:11:31Z</time>
      </trkpt>
      <trkpt lat="43.45137" lon="6.20443">
        <ele>213.3</ele>
        <time>2025-12-15T12:11:40Z</time>
      </trkpt>
      <trkpt lat="43.45145" lon="6.2045">
        <ele>213.9</ele>
        <time>2025-12-15T12:11:48Z</time>
      </trkpt>
      <trkpt lat="43.45149" lon="6.20461">
        <ele>212.9</ele>
        <time>2025-12-15T12:11:57Z</time>
      </trkpt>
      <trkpt lat="43.45154" lon="6.20472">
        <ele>212.1</ele>
        <time>2025-12-15T12:12:06Z</time>
      </trkpt>
      <trkpt lat="43.45161" lon="6.20482">
        <ele>211.9</ele>
        <time>2025-12-15T12:12:16Z</time>
      </trkpt>
      <trkpt lat="43.45165" lon="6.20494">
        <ele>211.5</ele>
        <time>2025-12-15T12:12:23Z</time>
      </trkpt>
      <trkpt lat="43.45171" lon="6.20504">
        <ele>211.1</ele>
        <time>2025-12-15T12:12:32Z</time>
      </trkpt>
      <trkpt lat="43.45177" lon="6.20515">
        <ele>211.3</ele>
        <time>2025-12-15T12:12:43Z</time>
      </trkpt>
      <trkpt lat="43.45182" lon="6.20525">
        <ele>211.5</ele>
        <time>2025-12-15T12:12:52Z</time>
      </trkpt>
      <trkpt lat="43.45189" lon="6.20534">
        <ele>211.7</ele>
        <time>2025-12-15T12:13:01Z</time>
      </trkpt>
      <trkpt lat="43.45195" lon="6.20544">
        <ele>212</ele>
        <time>2025-12-15T12:13:11Z</time>
      </trkpt>
      <trkpt lat="43.45204" lon="6.20546">
        <ele>212.2</ele>
        <time>2025-12-15T12:13:21Z</time>
      </trkpt>
      <trkpt lat="43.45213" lon="6.20549">
        <ele>212.4</ele>
        <time>2025-12-15T12:13:35Z</time>
      </trkpt>
      <trkpt lat="43.4522" lon="6.20555">
        <ele>213</ele>
        <time>2025-12-15T12:13:46Z</time>
      </trkpt>
      <trkpt lat="43.45229" lon="6.20563">
        <ele>213.5</ele>
        <time>2025-12-15T12:13:56Z</time>
      </trkpt>
      <trkpt lat="43.45232" lon="6.20575">
        <ele>213.9</ele>
        <time>2025-12-15T12:14:09Z</time>
      </trkpt>
      <trkpt lat="43.45239" lon="6.20583">
        <ele>214.2</ele>
        <time>2025-12-15T12:14:19Z</time>
      </trkpt>
      <trkpt lat="43.45243" lon="6.20596">
        <ele>214</ele>
        <time>2025-12-15T12:14:39Z</time>
      </trkpt>
      <trkpt lat="43.45248" lon="6.20607">
        <ele>214.3</ele>
        <time>2025-12-15T12:14:50Z</time>
      </trkpt>
      <trkpt lat="43.45253" lon="6.20617">
        <ele>214</ele>
        <time>2025-12-15T12:14:58Z</time>
      </trkpt>
      <trkpt lat="43.45261" lon="6.20626">
        <ele>214</ele>
        <time>2025-12-15T12:15:09Z</time>
      </trkpt>
      <trkpt lat="43.45269" lon="6.20633">
        <ele>213.8</ele>
        <time>2025-12-15T12:15:18Z</time>
      </trkpt>
      <trkpt lat="43.4527" lon="6.20646">
        <ele>213.6</ele>
        <time>2025-12-15T12:15:26Z</time>
      </trkpt>
      <trkpt lat="43.45275" lon="6.20657">
        <ele>213.7</ele>
        <time>2025-12-15T12:15:37Z</time>
      </trkpt>
      <trkpt lat="43.4528" lon="6.20668">
        <ele>213.7</ele>
        <time>2025-12-15T12:15:47Z</time>
      </trkpt>
      <trkpt lat="43.45285" lon="6.20679">
        <ele>213.6</ele>
        <time>2025-12-15T12:15:55Z</time>
      </trkpt>
      <trkpt lat="43.45292" lon="6.20688">
        <ele>213.7</ele>
        <time>2025-12-15T12:16:03Z</time>
      </trkpt>
      <trkpt lat="43.45299" lon="6.20695">
        <ele>214.2</ele>
        <time>2025-12-15T12:16:12Z</time>
      </trkpt>
      <trkpt lat="43.45305" lon="6.20705">
        <ele>213.8</ele>
        <time>2025-12-15T12:16:25Z</time>
      </trkpt>
      <trkpt lat="43.45311" lon="6.20716">
        <ele>213.5</ele>
        <time>2025-12-15T12:16:35Z</time>
      </trkpt>
      <trkpt lat="43.45319" lon="6.20723">
        <ele>213.7</ele>
        <time>2025-12-15T12:16:43Z</time>
      </trkpt>
      <trkpt lat="43.45326" lon="6.20729">
        <ele>213.1</ele>
        <time>2025-12-15T12:16:54Z</time>
      </trkpt>
      <trkpt lat="43.45334" lon="6.20737">
        <ele>212.5</ele>
        <time>2025-12-15T12:17:04Z</time>
      </trkpt>
      <trkpt lat="43.45341" lon="6.20745">
        <ele>212.5</ele>
        <time>2025-12-15T12:17:12Z</time>
      </trkpt>
      <trkpt lat="43.45348" lon="6.20755">
        <ele>212.3</ele>
        <time>2025-12-15T12:17:21Z</time>
      </trkpt>
      <trkpt lat="43.45356" lon="6.20761">
        <ele>212.1</ele>
        <time>2025-12-15T12:17:29Z</time>
      </trkpt>
      <trkpt lat="43.45364" lon="6.20768">
        <ele>212</ele>
        <time>2025-12-15T12:17:38Z</time>
      </trkpt>
      <trkpt lat="43.45371" lon="6.20776">
        <ele>212.8</ele>
        <time>2025-12-15T12:17:47Z</time>
      </trkpt>
      <trkpt lat="43.45377" lon="6.20785">
        <ele>212.4</ele>
        <time>2025-12-15T12:17:56Z</time>
      </trkpt>
      <trkpt lat="43.45385" lon="6.20794">
        <ele>212.3</ele>
        <time>2025-12-15T12:18:06Z</time>
      </trkpt>
      <trkpt lat="43.45393" lon="6.208">
        <ele>211.9</ele>
        <time>2025-12-15T12:18:16Z</time>
      </trkpt>
      <trkpt lat="43.45402" lon="6.20802">
        <ele>211.7</ele>
        <time>2025-12-15T12:18:24Z</time>
      </trkpt>
      <trkpt lat="43.45412" lon="6.20803">
        <ele>211.6</ele>
        <time>2025-12-15T12:18:32Z</time>
      </trkpt>
      <trkpt lat="43.45421" lon="6.20802">
        <ele>211.5</ele>
        <time>2025-12-15T12:18:42Z</time>
      </trkpt>
      <trkpt lat="43.4543" lon="6.20803">
        <ele>210.9</ele>
        <time>2025-12-15T12:19:13Z</time>
      </trkpt>
      <trkpt lat="43.45436" lon="6.20792">
        <ele>212.9</ele>
        <time>2025-12-15T12:22:00Z</time>
      </trkpt>
      <trkpt lat="43.45444" lon="6.20785">
        <ele>212.3</ele>
        <time>2025-12-15T12:22:11Z</time>
      </trkpt>
      <trkpt lat="43.45452" lon="6.2078">
        <ele>211.6</ele>
        <time>2025-12-15T12:22:25Z</time>
      </trkpt>
      <trkpt lat="43.45461" lon="6.20775">
        <ele>211.2</ele>
        <time>2025-12-15T12:22:36Z</time>
      </trkpt>
      <trkpt lat="43.4547" lon="6.2077">
        <ele>210.7</ele>
        <time>2025-12-15T12:22:52Z</time>
      </trkpt>
      <trkpt lat="43.45478" lon="6.20765">
        <ele>210.5</ele>
        <time>2025-12-15T12:23:03Z</time>
      </trkpt>
      <trkpt lat="43.45487" lon="6.20759">
        <ele>211.1</ele>
        <time>2025-12-15T12:23:12Z</time>
      </trkpt>
      <trkpt lat="43.45491" lon="6.20748">
        <ele>211.5</ele>
        <time>2025-12-15T12:23:28Z</time>
      </trkpt>
      <trkpt lat="43.45499" lon="6.20738">
        <ele>211.9</ele>
        <time>2025-12-15T12:23:40Z</time>
      </trkpt>
      <trkpt lat="43.45505" lon="6.20728">
        <ele>211.4</ele>
        <time>2025-12-15T12:24:01Z</time>
      </trkpt>
      <trkpt lat="43.45512" lon="6.2072">
        <ele>211.2</ele>
        <time>2025-12-15T12:24:40Z</time>
      </trkpt>
      <trkpt lat="43.45519" lon="6.20711">
        <ele>211.2</ele>
        <time>2025-12-15T12:24:50Z</time>
      </trkpt>
      <trkpt lat="43.45526" lon="6.20701">
        <ele>211.9</ele>
        <time>2025-12-15T12:25:01Z</time>
      </trkpt>
      <trkpt lat="43.45533" lon="6.20692">
        <ele>212.3</ele>
        <time>2025-12-15T12:25:10Z</time>
      </trkpt>
      <trkpt lat="43.45541" lon="6.20685">
        <ele>212.1</ele>
        <time>2025-12-15T12:25:19Z</time>
      </trkpt>
      <trkpt lat="43.4555" lon="6.20679">
        <ele>211.8</ele>
        <time>2025-12-15T12:25:29Z</time>
      </trkpt>
      <trkpt lat="43.45559" lon="6.20675">
        <ele>211.4</ele>
        <time>2025-12-15T12:25:39Z</time>
      </trkpt>
      <trkpt lat="43.45568" lon="6.2067">
        <ele>210.8</ele>
        <time>2025-12-15T12:25:50Z</time>
      </trkpt>
      <trkpt lat="43.45576" lon="6.20664">
        <ele>211</ele>
        <time>2025-12-15T12:25:57Z</time>
      </trkpt>
      <trkpt lat="43.45586" lon="6.20658">
        <ele>211</ele>
        <time>2025-12-15T12:26:05Z</time>
      </trkpt>
      <trkpt lat="43.45594" lon="6.20649">
        <ele>210.8</ele>
        <time>2025-12-15T12:26:11Z</time>
      </trkpt>
      <trkpt lat="43.45602" lon="6.20643">
        <ele>210.8</ele>
        <time>2025-12-15T12:26:19Z</time>
      </trkpt>
      <trkpt lat="43.4561" lon="6.20636">
        <ele>210.8</ele>
        <time>2025-12-15T12:26:31Z</time>
      </trkpt>
      <trkpt lat="43.45618" lon="6.20627">
        <ele>210.8</ele>
        <time>2025-12-15T12:26:38Z</time>
      </trkpt>
      <trkpt lat="43.45624" lon="6.20617">
        <ele>210.8</ele>
        <time>2025-12-15T12:26:47Z</time>
      </trkpt>
      <trkpt lat="43.4563" lon="6.20609">
        <ele>210.6</ele>
        <time>2025-12-15T12:26:56Z</time>
      </trkpt>
      <trkpt lat="43.45639" lon="6.20602">
        <ele>210.5</ele>
        <time>2025-12-15T12:27:04Z</time>
      </trkpt>
      <trkpt lat="43.45648" lon="6.20598">
        <ele>210.4</ele>
        <time>2025-12-15T12:27:14Z</time>
      </trkpt>
      <trkpt lat="43.45657" lon="6.20597">
        <ele>210.4</ele>
        <time>2025-12-15T12:27:34Z</time>
      </trkpt>
      <trkpt lat="43.45666" lon="6.20597">
        <ele>210.1</ele>
        <time>2025-12-15T12:27:40Z</time>
      </trkpt>
      <trkpt lat="43.45676" lon="6.20595">
        <ele>209.8</ele>
        <time>2025-12-15T12:27:48Z</time>
      </trkpt>
      <trkpt lat="43.45685" lon="6.20593">
        <ele>209.4</ele>
        <time>2025-12-15T12:27:58Z</time>
      </trkpt>
      <trkpt lat="43.45695" lon="6.20591">
        <ele>209.6</ele>
        <time>2025-12-15T12:28:06Z</time>
      </trkpt>
      <trkpt lat="43.45704" lon="6.20587">
        <ele>209.7</ele>
        <time>2025-12-15T12:28:18Z</time>
      </trkpt>
      <trkpt lat="43.45713" lon="6.20582">
        <ele>209.1</ele>
        <time>2025-12-15T12:28:30Z</time>
      </trkpt>
      <trkpt lat="43.45722" lon="6.2058">
        <ele>208.9</ele>
        <time>2025-12-15T12:28:39Z</time>
      </trkpt>
      <trkpt lat="43.45732" lon="6.20578">
        <ele>208.9</ele>
        <time>2025-12-15T12:28:49Z</time>
      </trkpt>
      <trkpt lat="43.45742" lon="6.20577">
        <ele>208.3</ele>
        <time>2025-12-15T12:28:58Z</time>
      </trkpt>
      <trkpt lat="43.45751" lon="6.20574">
        <ele>207.7</ele>
        <time>2025-12-15T12:29:08Z</time>
      </trkpt>
      <trkpt lat="43.4576" lon="6.20575">
        <ele>207.5</ele>
        <time>2025-12-15T12:29:18Z</time>
      </trkpt>
      <trkpt lat="43.4577" lon="6.20575">
        <ele>207.4</ele>
        <time>2025-12-15T12:29:29Z</time>
      </trkpt>
      <trkpt lat="43.4578" lon="6.2057">
        <ele>207.5</ele>
        <time>2025-12-15T12:29:40Z</time>
      </trkpt>
      <trkpt lat="43.45789" lon="6.20567">
        <ele>207.5</ele>
        <time>2025-12-15T12:29:50Z</time>
      </trkpt>
      <trkpt lat="43.45798" lon="6.20562">
        <ele>207.5</ele>
        <time>2025-12-15T12:29:57Z</time>
      </trkpt>
      <trkpt lat="43.45807" lon="6.20561">
        <ele>207.3</ele>
        <time>2025-12-15T12:30:05Z</time>
      </trkpt>
      <trkpt lat="43.45816" lon="6.20556">
        <ele>206.9</ele>
        <time>2025-12-15T12:30:14Z</time>
      </trkpt>
      <trkpt lat="43.45825" lon="6.20556">
        <ele>206.8</ele>
        <time>2025-12-15T12:30:23Z</time>
      </trkpt>
      <trkpt lat="43.45834" lon="6.20551">
        <ele>206.9</ele>
        <time>2025-12-15T12:30:31Z</time>
      </trkpt>
      <trkpt lat="43.45843" lon="6.20553">
        <ele>206.7</ele>
        <time>2025-12-15T12:30:41Z</time>
      </trkpt>
      <trkpt lat="43.45852" lon="6.20553">
        <ele>206.6</ele>
        <time>2025-12-15T12:30:51Z</time>
      </trkpt>
      <trkpt lat="43.45862" lon="6.2055">
        <ele>206.4</ele>
        <time>2025-12-15T12:31:00Z</time>
      </trkpt>
      <trkpt lat="43.45871" lon="6.20551">
        <ele>206.4</ele>
        <time>2025-12-15T12:31:08Z</time>
      </trkpt>
      <trkpt lat="43.45881" lon="6.20552">
        <ele>206.5</ele>
        <time>2025-12-15T12:31:16Z</time>
      </trkpt>
      <trkpt lat="43.45889" lon="6.20547">
        <ele>206.4</ele>
        <time>2025-12-15T12:31:24Z</time>
      </trkpt>
      <trkpt lat="43.45898" lon="6.20551">
        <ele>206.5</ele>
        <time>2025-12-15T12:31:32Z</time>
      </trkpt>
      <trkpt lat="43.45907" lon="6.20549">
        <ele>206.6</ele>
        <time>2025-12-15T12:31:39Z</time>
      </trkpt>
      <trkpt lat="43.45916" lon="6.20553">
        <ele>206.5</ele>
        <time>2025-12-15T12:31:56Z</time>
      </trkpt>
      <trkpt lat="43.45925" lon="6.20557">
        <ele>206.3</ele>
        <time>2025-12-15T12:32:05Z</time>
      </trkpt>
      <trkpt lat="43.45934" lon="6.20562">
        <ele>206.2</ele>
        <time>2025-12-15T12:32:14Z</time>
      </trkpt>
      <trkpt lat="43.45943" lon="6.20561">
        <ele>206.1</ele>
        <time>2025-12-15T12:32:25Z</time>
      </trkpt>
      <trkpt lat="43.45952" lon="6.20566">
        <ele>205.9</ele>
        <time>2025-12-15T12:32:33Z</time>
      </trkpt>
      <trkpt lat="43.45961" lon="6.20571">
        <ele>205.7</ele>
        <time>2025-12-15T12:32:41Z</time>
      </trkpt>
      <trkpt lat="43.45969" lon="6.20576">
        <ele>205.7</ele>
        <time>2025-12-15T12:32:51Z</time>
      </trkpt>
      <trkpt lat="43.45978" lon="6.2058">
        <ele>205.6</ele>
        <time>2025-12-15T12:33:00Z</time>
      </trkpt>
      <trkpt lat="43.45987" lon="6.20584">
        <ele>205.7</ele>
        <time>2025-12-15T12:33:08Z</time>
      </trkpt>
      <trkpt lat="43.45997" lon="6.20585">
        <ele>204.6</ele>
        <time>2025-12-15T12:33:58Z</time>
      </trkpt>
      <trkpt lat="43.46003" lon="6.20595">
        <ele>204.8</ele>
        <time>2025-12-15T12:34:09Z</time>
      </trkpt>
      <trkpt lat="43.46012" lon="6.20599">
        <ele>204.6</ele>
        <time>2025-12-15T12:34:21Z</time>
      </trkpt>
      <trkpt lat="43.4602" lon="6.20607">
        <ele>203.9</ele>
        <time>2025-12-15T12:34:30Z</time>
      </trkpt>
      <trkpt lat="43.46029" lon="6.20613">
        <ele>203.7</ele>
        <time>2025-12-15T12:34:36Z</time>
      </trkpt>
      <trkpt lat="43.46036" lon="6.20622">
        <ele>203.6</ele>
        <time>2025-12-15T12:34:45Z</time>
      </trkpt>
      <trkpt lat="43.46044" lon="6.20631">
        <ele>203.6</ele>
        <time>2025-12-15T12:34:54Z</time>
      </trkpt>
      <trkpt lat="43.46049" lon="6.20642">
        <ele>203.5</ele>
        <time>2025-12-15T12:35:03Z</time>
      </trkpt>
      <trkpt lat="43.46057" lon="6.20649">
        <ele>203.2</ele>
        <time>2025-12-15T12:35:11Z</time>
      </trkpt>
      <trkpt lat="43.46063" lon="6.20657">
        <ele>203.9</ele>
        <time>2025-12-15T12:35:25Z</time>
      </trkpt>
      <trkpt lat="43.46071" lon="6.20665">
        <ele>203.3</ele>
        <time>2025-12-15T12:35:36Z</time>
      </trkpt>
      <trkpt lat="43.46077" lon="6.20675">
        <ele>202.8</ele>
        <time>2025-12-15T12:35:45Z</time>
      </trkpt>
      <trkpt lat="43.46081" lon="6.20688">
        <ele>202.9</ele>
        <time>2025-12-15T12:35:54Z</time>
      </trkpt>
      <trkpt lat="43.46085" lon="6.20699">
        <ele>203</ele>
        <time>2025-12-15T12:36:03Z</time>
      </trkpt>
      <trkpt lat="43.46093" lon="6.20706">
        <ele>203.1</ele>
        <time>2025-12-15T12:36:11Z</time>
      </trkpt>
      <trkpt lat="43.46099" lon="6.20716">
        <ele>202.9</ele>
        <time>2025-12-15T12:36:21Z</time>
      </trkpt>
      <trkpt lat="43.46107" lon="6.20724">
        <ele>202.2</ele>
        <time>2025-12-15T12:36:31Z</time>
      </trkpt>
      <trkpt lat="43.46113" lon="6.20734">
        <ele>202.3</ele>
        <time>2025-12-15T12:36:41Z</time>
      </trkpt>
      <trkpt lat="43.46118" lon="6.20745">
        <ele>202.6</ele>
        <time>2025-12-15T12:36:50Z</time>
      </trkpt>
      <trkpt lat="43.46122" lon="6.20757">
        <ele>202.8</ele>
        <time>2025-12-15T12:37:04Z</time>
      </trkpt>
      <trkpt lat="43.46125" lon="6.20771">
        <ele>203.1</ele>
        <time>2025-12-15T12:37:17Z</time>
      </trkpt>
      <trkpt lat="43.46127" lon="6.20784">
        <ele>203.7</ele>
        <time>2025-12-15T12:37:27Z</time>
      </trkpt>
      <trkpt lat="43.46131" lon="6.20796">
        <ele>203.8</ele>
        <time>2025-12-15T12:37:59Z</time>
      </trkpt>
      <trkpt lat="43.46137" lon="6.20806">
        <ele>201</ele>
        <time>2025-12-15T12:39:31Z</time>
      </trkpt>
      <trkpt lat="43.46141" lon="6.20817">
        <ele>201.1</ele>
        <time>2025-12-15T12:39:44Z</time>
      </trkpt>
      <trkpt lat="43.46145" lon="6.20829">
        <ele>201.1</ele>
        <time>2025-12-15T12:39:57Z</time>
      </trkpt>
      <trkpt lat="43.46147" lon="6.20841">
        <ele>201.4</ele>
        <time>2025-12-15T12:40:07Z</time>
      </trkpt>
      <trkpt lat="43.46151" lon="6.20852">
        <ele>201.7</ele>
        <time>2025-12-15T12:40:18Z</time>
      </trkpt>
      <trkpt lat="43.4616" lon="6.20859">
        <ele>202.3</ele>
        <time>2025-12-15T12:40:31Z</time>
      </trkpt>
      <trkpt lat="43.46168" lon="6.20866">
        <ele>201.8</ele>
        <time>2025-12-15T12:40:46Z</time>
      </trkpt>
      <trkpt lat="43.46177" lon="6.20871">
        <ele>200.4</ele>
        <time>2025-12-15T12:41:03Z</time>
      </trkpt>
      <trkpt lat="43.46186" lon="6.20875">
        <ele>199.3</ele>
        <time>2025-12-15T12:41:15Z</time>
      </trkpt>
      <trkpt lat="43.46195" lon="6.20878">
        <ele>198.5</ele>
        <time>2025-12-15T12:41:24Z</time>
      </trkpt>
      <trkpt lat="43.46204" lon="6.20881">
        <ele>197.2</ele>
        <time>2025-12-15T12:41:38Z</time>
      </trkpt>
      <trkpt lat="43.46215" lon="6.20884">
        <ele>196.8</ele>
        <time>2025-12-15T12:41:49Z</time>
      </trkpt>
      <trkpt lat="43.46224" lon="6.20886">
        <ele>196.9</ele>
        <time>2025-12-15T12:41:58Z</time>
      </trkpt>
      <trkpt lat="43.46233" lon="6.20885">
        <ele>196.7</ele>
        <time>2025-12-15T12:42:08Z</time>
      </trkpt>
      <trkpt lat="43.46243" lon="6.20888">
        <ele>196.2</ele>
        <time>2025-12-15T12:42:20Z</time>
      </trkpt>
      <trkpt lat="43.46252" lon="6.20889">
        <ele>196.3</ele>
        <time>2025-12-15T12:42:30Z</time>
      </trkpt>
      <trkpt lat="43.46261" lon="6.20889">
        <ele>196.4</ele>
        <time>2025-12-15T12:42:40Z</time>
      </trkpt>
      <trkpt lat="43.4627" lon="6.20889">
        <ele>195.9</ele>
        <time>2025-12-15T12:42:51Z</time>
      </trkpt>
      <trkpt lat="43.46279" lon="6.20889">
        <ele>195.9</ele>
        <time>2025-12-15T12:43:05Z</time>
      </trkpt>
      <trkpt lat="43.46289" lon="6.2089">
        <ele>196.2</ele>
        <time>2025-12-15T12:43:17Z</time>
      </trkpt>
      <trkpt lat="43.46298" lon="6.2089">
        <ele>195.7</ele>
        <time>2025-12-15T12:43:29Z</time>
      </trkpt>
      <trkpt lat="43.46307" lon="6.20892">
        <ele>194.8</ele>
        <time>2025-12-15T12:43:44Z</time>
      </trkpt>
      <trkpt lat="43.46317" lon="6.20892">
        <ele>195.7</ele>
        <time>2025-12-15T12:43:56Z</time>
      </trkpt>
      <trkpt lat="43.46326" lon="6.20894">
        <ele>195.8</ele>
        <time>2025-12-15T12:44:03Z</time>
      </trkpt>
      <trkpt lat="43.46336" lon="6.20896">
        <ele>195.4</ele>
        <time>2025-12-15T12:44:13Z</time>
      </trkpt>
      <trkpt lat="43.46345" lon="6.209">
        <ele>195.2</ele>
        <time>2025-12-15T12:44:25Z</time>
      </trkpt>
      <trkpt lat="43.46354" lon="6.20903">
        <ele>196.4</ele>
        <time>2025-12-15T12:44:36Z</time>
      </trkpt>
      <trkpt lat="43.46363" lon="6.20907">
        <ele>195.4</ele>
        <time>2025-12-15T12:44:45Z</time>
      </trkpt>
      <trkpt lat="43.46372" lon="6.20909">
        <ele>194.5</ele>
        <time>2025-12-15T12:44:56Z</time>
      </trkpt>
      <trkpt lat="43.4638" lon="6.20906">
        <ele>194.3</ele>
        <time>2025-12-15T12:45:07Z</time>
      </trkpt>
      <trkpt lat="43.46389" lon="6.20898">
        <ele>194</ele>
        <time>2025-12-15T12:45:17Z</time>
      </trkpt>
      <trkpt lat="43.46398" lon="6.20892">
        <ele>194.4</ele>
        <time>2025-12-15T12:45:27Z</time>
      </trkpt>
      <trkpt lat="43.46406" lon="6.20887">
        <ele>194.5</ele>
        <time>2025-12-15T12:45:43Z</time>
      </trkpt>
      <trkpt lat="43.46415" lon="6.20881">
        <ele>194.3</ele>
        <time>2025-12-15T12:45:55Z</time>
      </trkpt>
      <trkpt lat="43.46424" lon="6.20877">
        <ele>194.5</ele>
        <time>2025-12-15T12:46:06Z</time>
      </trkpt>
      <trkpt lat="43.46433" lon="6.20872">
        <ele>195.3</ele>
        <time>2025-12-15T12:46:20Z</time>
      </trkpt>
      <trkpt lat="43.4644" lon="6.20864">
        <ele>195.4</ele>
        <time>2025-12-15T12:46:33Z</time>
      </trkpt>
      <trkpt lat="43.46448" lon="6.20858">
        <ele>194.9</ele>
        <time>2025-12-15T12:46:42Z</time>
      </trkpt>
      <trkpt lat="43.46455" lon="6.20851">
        <ele>194.9</ele>
        <time>2025-12-15T12:46:51Z</time>
      </trkpt>
      <trkpt lat="43.46461" lon="6.20841">
        <ele>194</ele>
        <time>2025-12-15T12:47:00Z</time>
      </trkpt>
      <trkpt lat="43.46467" lon="6.20831">
        <ele>194.6</ele>
        <time>2025-12-15T12:47:08Z</time>
      </trkpt>
      <trkpt lat="43.46471" lon="6.2082">
        <ele>195.1</ele>
        <time>2025-12-15T12:47:18Z</time>
      </trkpt>
      <trkpt lat="43.46476" lon="6.20809">
        <ele>195.4</ele>
        <time>2025-12-15T12:47:30Z</time>
      </trkpt>
      <trkpt lat="43.46484" lon="6.208">
        <ele>195.2</ele>
        <time>2025-12-15T12:47:43Z</time>
      </trkpt>
      <trkpt lat="43.46489" lon="6.20788">
        <ele>194.9</ele>
        <time>2025-12-15T12:47:54Z</time>
      </trkpt>
      <trkpt lat="43.46493" lon="6.20776">
        <ele>194</ele>
        <time>2025-12-15T12:48:07Z</time>
      </trkpt>
      <trkpt lat="43.46491" lon="6.20763">
        <ele>193.4</ele>
        <time>2025-12-15T12:48:14Z</time>
      </trkpt>
      <trkpt lat="43.46494" lon="6.2075">
        <ele>192.9</ele>
        <time>2025-12-15T12:48:22Z</time>
      </trkpt>
      <trkpt lat="43.46498" lon="6.20738">
        <ele>192.1</ele>
        <time>2025-12-15T12:48:30Z</time>
      </trkpt>
      <trkpt lat="43.46506" lon="6.20729">
        <ele>191.5</ele>
        <time>2025-12-15T12:48:39Z</time>
      </trkpt>
      <trkpt lat="43.46515" lon="6.20725">
        <ele>191.2</ele>
        <time>2025-12-15T12:48:52Z</time>
      </trkpt>
      <trkpt lat="43.46523" lon="6.20723">
        <ele>190.8</ele>
        <time>2025-12-15T12:49:02Z</time>
      </trkpt>
      <trkpt lat="43.46533" lon="6.20721">
        <ele>190.2</ele>
        <time>2025-12-15T12:49:14Z</time>
      </trkpt>
      <trkpt lat="43.46543" lon="6.20719">
        <ele>189.6</ele>
        <time>2025-12-15T12:49:24Z</time>
      </trkpt>
      <trkpt lat="43.46552" lon="6.20716">
        <ele>188.8</ele>
        <time>2025-12-15T12:49:34Z</time>
      </trkpt>
      <trkpt lat="43.46561" lon="6.20712">
        <ele>188.1</ele>
        <time>2025-12-15T12:49:45Z</time>
      </trkpt>
      <trkpt lat="43.46569" lon="6.20705">
        <ele>187.9</ele>
        <time>2025-12-15T12:49:56Z</time>
      </trkpt>
      <trkpt lat="43.46577" lon="6.20698">
        <ele>187.1</ele>
        <time>2025-12-15T12:50:11Z</time>
      </trkpt>
      <trkpt lat="43.46582" lon="6.20687">
        <ele>186.6</ele>
        <time>2025-12-15T12:50:44Z</time>
      </trkpt>
      <trkpt lat="43.46592" lon="6.20682">
        <ele>186.3</ele>
        <time>2025-12-15T12:50:54Z</time>
      </trkpt>
      <trkpt lat="43.46601" lon="6.20677">
        <ele>186.6</ele>
        <time>2025-12-15T12:51:04Z</time>
      </trkpt>
      <trkpt lat="43.46609" lon="6.20672">
        <ele>186.4</ele>
        <time>2025-12-15T12:51:17Z</time>
      </trkpt>
      <trkpt lat="43.46618" lon="6.20674">
        <ele>183.9</ele>
        <time>2025-12-15T12:53:25Z</time>
      </trkpt>
      <trkpt lat="43.46616" lon="6.20686">
        <ele>183.1</ele>
        <time>2025-12-15T12:53:38Z</time>
      </trkpt>
      <trkpt lat="43.46618" lon="6.20699">
        <ele>181.1</ele>
        <time>2025-12-15T12:53:59Z</time>
      </trkpt>
      <trkpt lat="43.46617" lon="6.20712">
        <ele>178</ele>
        <time>2025-12-15T12:54:31Z</time>
      </trkpt>
      <trkpt lat="43.46611" lon="6.20722">
        <ele>177.3</ele>
        <time>2025-12-15T12:54:40Z</time>
      </trkpt>
      <trkpt lat="43.46604" lon="6.20732">
        <ele>176.3</ele>
        <time>2025-12-15T12:54:52Z</time>
      </trkpt>
      <trkpt lat="43.46596" lon="6.2074">
        <ele>175.4</ele>
        <time>2025-12-15T12:55:02Z</time>
      </trkpt>
      <trkpt lat="43.4659" lon="6.20749">
        <ele>174.5</ele>
        <time>2025-12-15T12:55:11Z</time>
      </trkpt>
      <trkpt lat="43.4659" lon="6.20762">
        <ele>174.3</ele>
        <time>2025-12-15T12:55:22Z</time>
      </trkpt>
      <trkpt lat="43.466" lon="6.2076">
        <ele>173.2</ele>
        <time>2025-12-15T12:55:36Z</time>
      </trkpt>
      <trkpt lat="43.46609" lon="6.20761">
        <ele>172.6</ele>
        <time>2025-12-15T12:55:47Z</time>
      </trkpt>
      <trkpt lat="43.46619" lon="6.20761">
        <ele>172.2</ele>
        <time>2025-12-15T12:55:59Z</time>
      </trkpt>
      <trkpt lat="43.46628" lon="6.2076">
        <ele>172</ele>
        <time>2025-12-15T12:56:07Z</time>
      </trkpt>
      <trkpt lat="43.46638" lon="6.20758">
        <ele>171.4</ele>
        <time>2025-12-15T12:56:16Z</time>
      </trkpt>
      <trkpt lat="43.46647" lon="6.20757">
        <ele>171.5</ele>
        <time>2025-12-15T12:56:36Z</time>
      </trkpt>
      <trkpt lat="43.46649" lon="6.2077">
        <ele>170.7</ele>
        <time>2025-12-15T12:56:59Z</time>
      </trkpt>
      <trkpt lat="43.46651" lon="6.20758">
        <ele>169.8</ele>
        <time>2025-12-15T12:57:53Z</time>
      </trkpt>
      <trkpt lat="43.46656" lon="6.20746">
        <ele>169.7</ele>
        <time>2025-12-15T12:58:05Z</time>
      </trkpt>
      <trkpt lat="43.46662" lon="6.20736">
        <ele>170.1</ele>
        <time>2025-12-15T12:58:51Z</time>
      </trkpt>
      <trkpt lat="43.4667" lon="6.20731">
        <ele>169.2</ele>
        <time>2025-12-15T12:59:07Z</time>
      </trkpt>
      <trkpt lat="43.4667" lon="6.20719">
        <ele>168.9</ele>
        <time>2025-12-15T12:59:35Z</time>
      </trkpt>
      <trkpt lat="43.46672" lon="6.20706">
        <ele>168.7</ele>
        <time>2025-12-15T12:59:48Z</time>
      </trkpt>
      <trkpt lat="43.46668" lon="6.20694">
        <ele>168.8</ele>
        <time>2025-12-15T13:00:33Z</time>
      </trkpt>
      <trkpt lat="43.46668" lon="6.20681">
        <ele>169.1</ele>
        <time>2025-12-15T13:01:01Z</time>
      </trkpt>
      <trkpt lat="43.46674" lon="6.20672">
        <ele>169.4</ele>
        <time>2025-12-15T13:01:16Z</time>
      </trkpt>
      <trkpt lat="43.46677" lon="6.2066">
        <ele>169.6</ele>
        <time>2025-12-15T13:01:25Z</time>
      </trkpt>
      <trkpt lat="43.46683" lon="6.2065">
        <ele>169.9</ele>
        <time>2025-12-15T13:01:51Z</time>
      </trkpt>
      <trkpt lat="43.4669" lon="6.20642">
        <ele>170.6</ele>
        <time>2025-12-15T13:02:12Z</time>
      </trkpt>
      <trkpt lat="43.46698" lon="6.20636">
        <ele>171</ele>
        <time>2025-12-15T13:02:38Z</time>
      </trkpt>
      <trkpt lat="43.46706" lon="6.2063">
        <ele>170.5</ele>
        <time>2025-12-15T13:02:54Z</time>
      </trkpt>
      <trkpt lat="43.46714" lon="6.20623">
        <ele>169.7</ele>
        <time>2025-12-15T13:03:07Z</time>
      </trkpt>
      <trkpt lat="43.46721" lon="6.20615">
        <ele>169</ele>
        <time>2025-12-15T13:03:19Z</time>
      </trkpt>
      <trkpt lat="43.4673" lon="6.20611">
        <ele>169.2</ele>
        <time>2025-12-15T13:04:33Z</time>
      </trkpt>
      <trkpt lat="43.46725" lon="6.20601">
        <ele>169.1</ele>
        <time>2025-12-15T13:07:30Z</time>
      </trkpt>
      <trkpt lat="43.46733" lon="6.20605">
        <ele>168.6</ele>
        <time>2025-12-15T13:08:23Z</time>
      </trkpt>
      <trkpt lat="43.46738" lon="6.20594">
        <ele>168.6</ele>
        <time>2025-12-15T13:09:37Z</time>
      </trkpt>
      <trkpt lat="43.46746" lon="6.20587">
        <ele>168.6</ele>
        <time>2025-12-15T13:09:47Z</time>
      </trkpt>
      <trkpt lat="43.46752" lon="6.20577">
        <ele>168.4</ele>
        <time>2025-12-15T13:09:57Z</time>
      </trkpt>
      <trkpt lat="43.46757" lon="6.20566">
        <ele>168</ele>
        <time>2025-12-15T13:10:07Z</time>
      </trkpt>
      <trkpt lat="43.46762" lon="6.20555">
        <ele>168.2</ele>
        <time>2025-12-15T13:10:20Z</time>
      </trkpt>
      <trkpt lat="43.46765" lon="6.20543">
        <ele>168.6</ele>
        <time>2025-12-15T13:10:33Z</time>
      </trkpt>
      <trkpt lat="43.46769" lon="6.20532">
        <ele>168.3</ele>
        <time>2025-12-15T13:10:42Z</time>
      </trkpt>
      <trkpt lat="43.46773" lon="6.2052">
        <ele>167.8</ele>
        <time>2025-12-15T13:10:55Z</time>
      </trkpt>
      <trkpt lat="43.46775" lon="6.20508">
        <ele>168</ele>
        <time>2025-12-15T13:11:06Z</time>
      </trkpt>
      <trkpt lat="43.46777" lon="6.20496">
        <ele>168.2</ele>
        <time>2025-12-15T13:11:19Z</time>
      </trkpt>
      <trkpt lat="43.46782" lon="6.20484">
        <ele>168</ele>
        <time>2025-12-15T13:11:30Z</time>
      </trkpt>
      <trkpt lat="43.46786" lon="6.20472">
        <ele>167.7</ele>
        <time>2025-12-15T13:11:43Z</time>
      </trkpt>
      <trkpt lat="43.46788" lon="6.20459">
        <ele>167.3</ele>
        <time>2025-12-15T13:12:04Z</time>
      </trkpt>
      <trkpt lat="43.46785" lon="6.20446">
        <ele>167.4</ele>
        <time>2025-12-15T13:12:16Z</time>
      </trkpt>
      <trkpt lat="43.46779" lon="6.20437">
        <ele>167.3</ele>
        <time>2025-12-15T13:12:26Z</time>
      </trkpt>
      <trkpt lat="43.46772" lon="6.20427">
        <ele>168.8</ele>
        <time>2025-12-15T13:12:39Z</time>
      </trkpt>
      <trkpt lat="43.4677" lon="6.20415">
        <ele>169.4</ele>
        <time>2025-12-15T13:12:52Z</time>
      </trkpt>
      <trkpt lat="43.46769" lon="6.20402">
        <ele>168.9</ele>
        <time>2025-12-15T13:13:04Z</time>
      </trkpt>
      <trkpt lat="43.46766" lon="6.20389">
        <ele>167.9</ele>
        <time>2025-12-15T13:13:15Z</time>
      </trkpt>
      <trkpt lat="43.46761" lon="6.20378">
        <ele>167.3</ele>
        <time>2025-12-15T13:13:27Z</time>
      </trkpt>
      <trkpt lat="43.46757" lon="6.20366">
        <ele>166.8</ele>
        <time>2025-12-15T13:13:41Z</time>
      </trkpt>
      <trkpt lat="43.46754" lon="6.20354">
        <ele>167.1</ele>
        <time>2025-12-15T13:13:52Z</time>
      </trkpt>
      <trkpt lat="43.46751" lon="6.20342">
        <ele>166.9</ele>
        <time>2025-12-15T13:14:03Z</time>
      </trkpt>
      <trkpt lat="43.46748" lon="6.2033">
        <ele>167.4</ele>
        <time>2025-12-15T13:14:14Z</time>
      </trkpt>
      <trkpt lat="43.46746" lon="6.20317">
        <ele>167.7</ele>
        <time>2025-12-15T13:14:24Z</time>
      </trkpt>
      <trkpt lat="43.46743" lon="6.20305">
        <ele>167.4</ele>
        <time>2025-12-15T13:14:35Z</time>
      </trkpt>
      <trkpt lat="43.46737" lon="6.20296">
        <ele>167.2</ele>
        <time>2025-12-15T13:14:45Z</time>
      </trkpt>
      <trkpt lat="43.4673" lon="6.20286">
        <ele>166.7</ele>
        <time>2025-12-15T13:14:57Z</time>
      </trkpt>
      <trkpt lat="43.46723" lon="6.20277">
        <ele>166.2</ele>
        <time>2025-12-15T13:15:08Z</time>
      </trkpt>
      <trkpt lat="43.46717" lon="6.20268">
        <ele>166</ele>
        <time>2025-12-15T13:15:20Z</time>
      </trkpt>
      <trkpt lat="43.46713" lon="6.20257">
        <ele>165.7</ele>
        <time>2025-12-15T13:15:29Z</time>
      </trkpt>
      <trkpt lat="43.46712" lon="6.20244">
        <ele>166.3</ele>
        <time>2025-12-15T13:15:39Z</time>
      </trkpt>
      <trkpt lat="43.46712" lon="6.20232">
        <ele>166.4</ele>
        <time>2025-12-15T13:15:49Z</time>
      </trkpt>
      <trkpt lat="43.46716" lon="6.2022">
        <ele>166.4</ele>
        <time>2025-12-15T13:15:59Z</time>
      </trkpt>
      <trkpt lat="43.46721" lon="6.20209">
        <ele>166.3</ele>
        <time>2025-12-15T13:16:10Z</time>
      </trkpt>
      <trkpt lat="43.46726" lon="6.20198">
        <ele>167.1</ele>
        <time>2025-12-15T13:16:26Z</time>
      </trkpt>
      <trkpt lat="43.46732" lon="6.20188">
        <ele>166.7</ele>
        <time>2025-12-15T13:17:00Z</time>
      </trkpt>
      <trkpt lat="43.46736" lon="6.20177">
        <ele>165.8</ele>
        <time>2025-12-15T13:17:14Z</time>
      </trkpt>
      <trkpt lat="43.46737" lon="6.20165">
        <ele>165.7</ele>
        <time>2025-12-15T13:17:43Z</time>
      </trkpt>
      <trkpt lat="43.4674" lon="6.20152">
        <ele>165.7</ele>
        <time>2025-12-15T13:17:52Z</time>
      </trkpt>
      <trkpt lat="43.46736" lon="6.2014">
        <ele>165.6</ele>
        <time>2025-12-15T13:18:09Z</time>
      </trkpt>
      <trkpt lat="43.46728" lon="6.20132">
        <ele>165.6</ele>
        <time>2025-12-15T13:18:19Z</time>
      </trkpt>
      <trkpt lat="43.46719" lon="6.2013">
        <ele>165.6</ele>
        <time>2025-12-15T13:18:35Z</time>
      </trkpt>
      <trkpt lat="43.4671" lon="6.20133">
        <ele>165.2</ele>
        <time>2025-12-15T13:18:47Z</time>
      </trkpt>
      <trkpt lat="43.467" lon="6.20135">
        <ele>165</ele>
        <time>2025-12-15T13:18:59Z</time>
      </trkpt>
      <trkpt lat="43.46691" lon="6.20135">
        <ele>165.2</ele>
        <time>2025-12-15T13:19:09Z</time>
      </trkpt>
      <trkpt lat="43.46682" lon="6.20132">
        <ele>165</ele>
        <time>2025-12-15T13:19:18Z</time>
      </trkpt>
      <trkpt lat="43.46673" lon="6.20126">
        <ele>165.1</ele>
        <time>2025-12-15T13:19:29Z</time>
      </trkpt>
      <trkpt lat="43.46664" lon="6.20124">
        <ele>165.6</ele>
        <time>2025-12-15T13:19:53Z</time>
      </trkpt>
      <trkpt lat="43.46659" lon="6.20112">
        <ele>165.3</ele>
        <time>2025-12-15T13:20:06Z</time>
      </trkpt>
      <trkpt lat="43.46655" lon="6.201">
        <ele>165.2</ele>
        <time>2025-12-15T13:20:15Z</time>
      </trkpt>
      <trkpt lat="43.46651" lon="6.20089">
        <ele>164.9</ele>
        <time>2025-12-15T13:20:24Z</time>
      </trkpt>
      <trkpt lat="43.46644" lon="6.2008">
        <ele>164.8</ele>
        <time>2025-12-15T13:20:34Z</time>
      </trkpt>
      <trkpt lat="43.46637" lon="6.2007">
        <ele>165</ele>
        <time>2025-12-15T13:20:44Z</time>
      </trkpt>
      <trkpt lat="43.46628" lon="6.20066">
        <ele>165.1</ele>
        <time>2025-12-15T13:20:50Z</time>
      </trkpt>
      <trkpt lat="43.46619" lon="6.20064">
        <ele>164.8</ele>
        <time>2025-12-15T13:20:58Z</time>
      </trkpt>
      <trkpt lat="43.4661" lon="6.20061">
        <ele>164.7</ele>
        <time>2025-12-15T13:21:12Z</time>
      </trkpt>
      <trkpt lat="43.466" lon="6.20058">
        <ele>164.6</ele>
        <time>2025-12-15T13:21:21Z</time>
      </trkpt>
      <trkpt lat="43.46593" lon="6.20049">
        <ele>164.8</ele>
        <time>2025-12-15T13:21:30Z</time>
      </trkpt>
      <trkpt lat="43.46586" lon="6.20041">
        <ele>164.8</ele>
        <time>2025-12-15T13:21:38Z</time>
      </trkpt>
      <trkpt lat="43.46577" lon="6.20034">
        <ele>164.7</ele>
        <time>2025-12-15T13:21:47Z</time>
      </trkpt>
      <trkpt lat="43.46568" lon="6.20031">
        <ele>164.6</ele>
        <time>2025-12-15T13:21:57Z</time>
      </trkpt>
      <trkpt lat="43.46559" lon="6.20026">
        <ele>164.5</ele>
        <time>2025-12-15T13:22:07Z</time>
      </trkpt>
      <trkpt lat="43.46552" lon="6.20016">
        <ele>164.4</ele>
        <time>2025-12-15T13:22:21Z</time>
      </trkpt>
      <trkpt lat="43.46548" lon="6.20005">
        <ele>164.3</ele>
        <time>2025-12-15T13:22:28Z</time>
      </trkpt>
      <trkpt lat="43.46543" lon="6.19992">
        <ele>164.2</ele>
        <time>2025-12-15T13:22:39Z</time>
      </trkpt>
      <trkpt lat="43.46541" lon="6.19979">
        <ele>164.1</ele>
        <time>2025-12-15T13:22:54Z</time>
      </trkpt>
      <trkpt lat="43.46535" lon="6.19971">
        <ele>164</ele>
        <time>2025-12-15T13:23:04Z</time>
      </trkpt>
      <trkpt lat="43.46525" lon="6.19962">
        <ele>164</ele>
        <time>2025-12-15T13:23:12Z</time>
      </trkpt>
      <trkpt lat="43.46518" lon="6.19953">
        <ele>164</ele>
        <time>2025-12-15T13:23:22Z</time>
      </trkpt>
      <trkpt lat="43.46515" lon="6.19941">
        <ele>164.1</ele>
        <time>2025-12-15T13:23:35Z</time>
      </trkpt>
      <trkpt lat="43.4651" lon="6.1993">
        <ele>163.9</ele>
        <time>2025-12-15T13:23:43Z</time>
      </trkpt>
      <trkpt lat="43.46506" lon="6.19919">
        <ele>163.3</ele>
        <time>2025-12-15T13:23:58Z</time>
      </trkpt>
      <trkpt lat="43.46498" lon="6.1991">
        <ele>163.4</ele>
        <time>2025-12-15T13:24:09Z</time>
      </trkpt>
      <trkpt lat="43.46491" lon="6.19903">
        <ele>163.6</ele>
        <time>2025-12-15T13:24:16Z</time>
      </trkpt>
      <trkpt lat="43.46481" lon="6.19898">
        <ele>163.3</ele>
        <time>2025-12-15T13:24:26Z</time>
      </trkpt>
      <trkpt lat="43.46473" lon="6.1989">
        <ele>163.3</ele>
        <time>2025-12-15T13:24:36Z</time>
      </trkpt>
      <trkpt lat="43.46472" lon="6.19876">
        <ele>163.1</ele>
        <time>2025-12-15T13:24:48Z</time>
      </trkpt>
      <trkpt lat="43.46469" lon="6.19863">
        <ele>162.9</ele>
        <time>2025-12-15T13:24:59Z</time>
      </trkpt>
      <trkpt lat="43.46467" lon="6.1985">
        <ele>162.7</ele>
        <time>2025-12-15T13:25:12Z</time>
      </trkpt>
      <trkpt lat="43.46461" lon="6.19839">
        <ele>162.9</ele>
        <time>2025-12-15T13:25:24Z</time>
      </trkpt>
      <trkpt lat="43.46456" lon="6.19828">
        <ele>162.7</ele>
        <time>2025-12-15T13:25:42Z</time>
      </trkpt>
      <trkpt lat="43.46453" lon="6.19815">
        <ele>162.5</ele>
        <time>2025-12-15T13:25:53Z</time>
      </trkpt>
      <trkpt lat="43.4645" lon="6.19803">
        <ele>162.5</ele>
        <time>2025-12-15T13:26:04Z</time>
      </trkpt>
      <trkpt lat="43.46446" lon="6.19791">
        <ele>162.5</ele>
        <time>2025-12-15T13:26:15Z</time>
      </trkpt>
      <trkpt lat="43.46441" lon="6.19779">
        <ele>162.4</ele>
        <time>2025-12-15T13:26:25Z</time>
      </trkpt>
      <trkpt lat="43.46435" lon="6.19769">
        <ele>161.9</ele>
        <time>2025-12-15T13:26:36Z</time>
      </trkpt>
      <trkpt lat="43.4643" lon="6.19759">
        <ele>161.7</ele>
        <time>2025-12-15T13:26:52Z</time>
      </trkpt>
      <trkpt lat="43.46426" lon="6.19747">
        <ele>161.9</ele>
        <time>2025-12-15T13:27:04Z</time>
      </trkpt>
      <trkpt lat="43.46421" lon="6.19735">
        <ele>162.3</ele>
        <time>2025-12-15T13:27:13Z</time>
      </trkpt>
      <trkpt lat="43.46417" lon="6.19722">
        <ele>162</ele>
        <time>2025-12-15T13:27:22Z</time>
      </trkpt>
      <trkpt lat="43.46415" lon="6.1971">
        <ele>161.9</ele>
        <time>2025-12-15T13:27:30Z</time>
      </trkpt>
      <trkpt lat="43.46411" lon="6.19698">
        <ele>161.5</ele>
        <time>2025-12-15T13:27:41Z</time>
      </trkpt>
      <trkpt lat="43.46407" lon="6.19687">
        <ele>161.3</ele>
        <time>2025-12-15T13:27:51Z</time>
      </trkpt>
      <trkpt lat="43.46403" lon="6.19675">
        <ele>161.1</ele>
        <time>2025-12-15T13:28:00Z</time>
      </trkpt>
      <trkpt lat="43.46404" lon="6.19663">
        <ele>161</ele>
        <time>2025-12-15T13:28:11Z</time>
      </trkpt>
      <trkpt lat="43.46404" lon="6.1965">
        <ele>162</ele>
        <time>2025-12-15T13:28:44Z</time>
      </trkpt>
      <trkpt lat="43.46405" lon="6.19638">
        <ele>160.9</ele>
        <time>2025-12-15T13:28:58Z</time>
      </trkpt>
      <trkpt lat="43.46407" lon="6.19625">
        <ele>159.6</ele>
        <time>2025-12-15T13:29:10Z</time>
      </trkpt>
      <trkpt lat="43.4641" lon="6.19613">
        <ele>159.4</ele>
        <time>2025-12-15T13:29:21Z</time>
      </trkpt>
      <trkpt lat="43.46411" lon="6.19601">
        <ele>159.2</ele>
        <time>2025-12-15T13:29:32Z</time>
      </trkpt>
      <trkpt lat="43.46411" lon="6.19588">
        <ele>158.8</ele>
        <time>2025-12-15T13:29:43Z</time>
      </trkpt>
      <trkpt lat="43.46414" lon="6.19576">
        <ele>157.6</ele>
        <time>2025-12-15T13:29:55Z</time>
      </trkpt>
      <trkpt lat="43.46412" lon="6.19563">
        <ele>155.5</ele>
        <time>2025-12-15T13:30:07Z</time>
      </trkpt>
      <trkpt lat="43.46415" lon="6.1955">
        <ele>154.2</ele>
        <time>2025-12-15T13:30:19Z</time>
      </trkpt>
      <trkpt lat="43.46414" lon="6.19537">
        <ele>153.6</ele>
        <time>2025-12-15T13:30:29Z</time>
      </trkpt>
      <trkpt lat="43.46417" lon="6.19525">
        <ele>153.1</ele>
        <time>2025-12-15T13:30:38Z</time>
      </trkpt>
      <trkpt lat="43.46419" lon="6.19512">
        <ele>152.4</ele>
        <time>2025-12-15T13:30:52Z</time>
      </trkpt>
      <trkpt lat="43.46423" lon="6.19501">
        <ele>151.6</ele>
        <time>2025-12-15T13:31:14Z</time>
      </trkpt>
      <trkpt lat="43.46422" lon="6.19487">
        <ele>151.7</ele>
        <time>2025-12-15T13:31:41Z</time>
      </trkpt>
      <trkpt lat="43.46417" lon="6.19476">
        <ele>152.4</ele>
        <time>2025-12-15T13:31:50Z</time>
      </trkpt>
      <trkpt lat="43.46417" lon="6.19463">
        <ele>152.4</ele>
        <time>2025-12-15T13:31:58Z</time>
      </trkpt>
      <trkpt lat="43.46416" lon="6.1945">
        <ele>153.1</ele>
        <time>2025-12-15T13:32:09Z</time>
      </trkpt>
      <trkpt lat="43.46415" lon="6.19436">
        <ele>153</ele>
        <time>2025-12-15T13:32:19Z</time>
      </trkpt>
      <trkpt lat="43.46413" lon="6.19423">
        <ele>152.9</ele>
        <time>2025-12-15T13:32:29Z</time>
      </trkpt>
      <trkpt lat="43.4641" lon="6.1941">
        <ele>152.5</ele>
        <time>2025-12-15T13:32:38Z</time>
      </trkpt>
      <trkpt lat="43.46407" lon="6.19398">
        <ele>152.1</ele>
        <time>2025-12-15T13:32:47Z</time>
      </trkpt>
      <trkpt lat="43.46403" lon="6.19386">
        <ele>151.9</ele>
        <time>2025-12-15T13:32:56Z</time>
      </trkpt>
      <trkpt lat="43.46399" lon="6.19374">
        <ele>151.5</ele>
        <time>2025-12-15T13:33:05Z</time>
      </trkpt>
      <trkpt lat="43.46398" lon="6.19361">
        <ele>151.4</ele>
        <time>2025-12-15T13:33:15Z</time>
      </trkpt>
      <trkpt lat="43.464" lon="6.19348">
        <ele>150.6</ele>
        <time>2025-12-15T13:33:25Z</time>
      </trkpt>
      <trkpt lat="43.46409" lon="6.19343">
        <ele>149.5</ele>
        <time>2025-12-15T13:33:36Z</time>
      </trkpt>
      <trkpt lat="43.46419" lon="6.19339">
        <ele>147.6</ele>
        <time>2025-12-15T13:33:52Z</time>
      </trkpt>
      <trkpt lat="43.46428" lon="6.19336">
        <ele>146.9</ele>
        <time>2025-12-15T13:34:03Z</time>
      </trkpt>
      <trkpt lat="43.46436" lon="6.19332">
        <ele>145.8</ele>
        <time>2025-12-15T13:34:15Z</time>
      </trkpt>
      <trkpt lat="43.46445" lon="6.19327">
        <ele>144.2</ele>
        <time>2025-12-15T13:34:28Z</time>
      </trkpt>
      <trkpt lat="43.46452" lon="6.19319">
        <ele>143.3</ele>
        <time>2025-12-15T13:34:38Z</time>
      </trkpt>
      <trkpt lat="43.46461" lon="6.19316">
        <ele>143.4</ele>
        <time>2025-12-15T13:34:46Z</time>
      </trkpt>
      <trkpt lat="43.4647" lon="6.19316">
        <ele>143.5</ele>
        <time>2025-12-15T13:35:09Z</time>
      </trkpt>
      <trkpt lat="43.46479" lon="6.19317">
        <ele>142.8</ele>
        <time>2025-12-15T13:35:19Z</time>
      </trkpt>
      <trkpt lat="43.46488" lon="6.19314">
        <ele>143</ele>
        <time>2025-12-15T13:35:36Z</time>
      </trkpt>
      <trkpt lat="43.46489" lon="6.19301">
        <ele>143.1</ele>
        <time>2025-12-15T13:35:53Z</time>
      </trkpt>
      <trkpt lat="43.46494" lon="6.19291">
        <ele>143.1</ele>
        <time>2025-12-15T13:36:08Z</time>
      </trkpt>
      <trkpt lat="43.465" lon="6.1928">
        <ele>143.3</ele>
        <time>2025-12-15T13:36:18Z</time>
      </trkpt>
      <trkpt lat="43.46507" lon="6.19271">
        <ele>143.4</ele>
        <time>2025-12-15T13:36:28Z</time>
      </trkpt>
      <trkpt lat="43.46514" lon="6.19263">
        <ele>143.7</ele>
        <time>2025-12-15T13:36:38Z</time>
      </trkpt>
      <trkpt lat="43.46523" lon="6.19257">
        <ele>144.3</ele>
        <time>2025-12-15T13:36:47Z</time>
      </trkpt>
      <trkpt lat="43.46531" lon="6.19251">
        <ele>144.6</ele>
        <time>2025-12-15T13:36:57Z</time>
      </trkpt>
      <trkpt lat="43.46541" lon="6.19248">
        <ele>145.3</ele>
        <time>2025-12-15T13:37:08Z</time>
      </trkpt>
      <trkpt lat="43.4655" lon="6.1925">
        <ele>145.5</ele>
        <time>2025-12-15T13:37:18Z</time>
      </trkpt>
      <trkpt lat="43.4656" lon="6.19252">
        <ele>145.2</ele>
        <time>2025-12-15T13:37:32Z</time>
      </trkpt>
      <trkpt lat="43.46569" lon="6.1925">
        <ele>145.4</ele>
        <time>2025-12-15T13:37:44Z</time>
      </trkpt>
      <trkpt lat="43.46577" lon="6.19244">
        <ele>144.9</ele>
        <time>2025-12-15T13:37:56Z</time>
      </trkpt>
      <trkpt lat="43.46586" lon="6.19238">
        <ele>145</ele>
        <time>2025-12-15T13:38:05Z</time>
      </trkpt>
      <trkpt lat="43.46595" lon="6.19233">
        <ele>144.9</ele>
        <time>2025-12-15T13:38:15Z</time>
      </trkpt>
      <trkpt lat="43.46603" lon="6.19226">
        <ele>144.6</ele>
        <time>2025-12-15T13:38:26Z</time>
      </trkpt>
      <trkpt lat="43.46611" lon="6.19221">
        <ele>144.2</ele>
        <time>2025-12-15T13:38:37Z</time>
      </trkpt>
      <trkpt lat="43.46618" lon="6.19213">
        <ele>143.7</ele>
        <time>2025-12-15T13:38:49Z</time>
      </trkpt>
      <trkpt lat="43.46626" lon="6.19205">
        <ele>143.3</ele>
        <time>2025-12-15T13:38:59Z</time>
      </trkpt>
      <trkpt lat="43.46634" lon="6.19199">
        <ele>142.7</ele>
        <time>2025-12-15T13:39:09Z</time>
      </trkpt>
      <trkpt lat="43.46641" lon="6.19191">
        <ele>142.8</ele>
        <time>2025-12-15T13:39:23Z</time>
      </trkpt>
      <trkpt lat="43.46649" lon="6.19182">
        <ele>142.6</ele>
        <time>2025-12-15T13:39:35Z</time>
      </trkpt>
      <trkpt lat="43.46657" lon="6.19175">
        <ele>142.2</ele>
        <time>2025-12-15T13:39:46Z</time>
      </trkpt>
      <trkpt lat="43.46666" lon="6.1917">
        <ele>141.8</ele>
        <time>2025-12-15T13:39:54Z</time>
      </trkpt>
      <trkpt lat="43.46675" lon="6.19166">
        <ele>141.7</ele>
        <time>2025-12-15T13:40:04Z</time>
      </trkpt>
      <trkpt lat="43.46683" lon="6.19161">
        <ele>141.9</ele>
        <time>2025-12-15T13:40:13Z</time>
      </trkpt>
      <trkpt lat="43.46691" lon="6.19153">
        <ele>141.6</ele>
        <time>2025-12-15T13:40:23Z</time>
      </trkpt>
      <trkpt lat="43.46698" lon="6.19145">
        <ele>141.7</ele>
        <time>2025-12-15T13:40:32Z</time>
      </trkpt>
      <trkpt lat="43.46706" lon="6.19138">
        <ele>141.4</ele>
        <time>2025-12-15T13:40:42Z</time>
      </trkpt>
      <trkpt lat="43.46714" lon="6.19131">
        <ele>141.4</ele>
        <time>2025-12-15T13:40:51Z</time>
      </trkpt>
      <trkpt lat="43.46721" lon="6.19124">
        <ele>141.6</ele>
        <time>2025-12-15T13:41:00Z</time>
      </trkpt>
      <trkpt lat="43.46729" lon="6.19116">
        <ele>141.4</ele>
        <time>2025-12-15T13:41:10Z</time>
      </trkpt>
      <trkpt lat="43.46738" lon="6.1911">
        <ele>142.1</ele>
        <time>2025-12-15T13:41:20Z</time>
      </trkpt>
      <trkpt lat="43.46746" lon="6.19106">
        <ele>142.6</ele>
        <time>2025-12-15T13:41:31Z</time>
      </trkpt>
      <trkpt lat="43.46755" lon="6.19103">
        <ele>142.7</ele>
        <time>2025-12-15T13:41:44Z</time>
      </trkpt>
      <trkpt lat="43.46764" lon="6.19103">
        <ele>144.4</ele>
        <time>2025-12-15T13:41:57Z</time>
      </trkpt>
      <trkpt lat="43.46771" lon="6.19113">
        <ele>145.1</ele>
        <time>2025-12-15T13:42:20Z</time>
      </trkpt>
      <trkpt lat="43.46777" lon="6.19123">
        <ele>146</ele>
        <time>2025-12-15T13:42:32Z</time>
      </trkpt>
      <trkpt lat="43.46785" lon="6.19128">
        <ele>146.8</ele>
        <time>2025-12-15T13:42:44Z</time>
      </trkpt>
      <trkpt lat="43.46794" lon="6.19128">
        <ele>147.8</ele>
        <time>2025-12-15T13:43:04Z</time>
      </trkpt>
      <trkpt lat="43.46798" lon="6.19129">
        <ele>148.4</ele>
        <time>2025-12-15T13:44:22Z</time>
      </trkpt>
    </trkseg>
  </trk>
</gpx>